<?xml version="1.0" encoding="UTF-8" standalone="no" ?>
<gpx xmlns="http://www.topografix.com/GPX/1/1" xmlns:xsi="http://www.w3.org/2001/XMLSchema-instance" xsi:schemaLocation="http://www.topografix.com/GPX/1/1 http://www.topografix.com/GPX/1/1/gpx.xsd" version="1.1" creator="VisuGPX - https://www.visugpx.com">
  <metadata>
    <name>04 - Plateau de Ganagobie depuis le village et retour</name>
    <desc><![CDATA[Depuis le village, on monte sur le plateau que l'on visite par l'ouest (Fontaine des oiseaux, Chemin de Forcalquier, vue sur Lurs, parking, boutique des moines, église, Croix du bout de l'allée des Moines, ruines de la Ville Vieille) et retour au village après des vues à couper le souffle depuis cette position élevée sur la vallée de la Durance.]]></desc>
  </metadata>
  <wpt lat="44.00264" lon="5.90706">
    <ele>700</ele>
    <name><![CDATA[Arrivée au Plateau]]></name>
    <desc><![CDATA[23-AOU-11 8:58:33]]></desc>
    <cmt><![CDATA[23-AOU-11 8:58:33]]></cmt>
  </wpt>
  <wpt lat="44.00956" lon="5.91667">
    <ele>554</ele>
    <name><![CDATA[Arrivée Ganagobie]]></name>
    <desc><![CDATA[23-AOU-11 11:09:35]]></desc>
    <cmt><![CDATA[23-AOU-11 11:09:35]]></cmt>
  </wpt>
  <wpt lat="44.00719" lon="5.90832">
    <ele>637</ele>
    <name><![CDATA[Bifurcation Monticelli]]></name>
    <desc><![CDATA[23-AOU-11 8:47:52]]></desc>
    <cmt><![CDATA[23-AOU-11 8:47:52]]></cmt>
  </wpt>
  <wpt lat="43.99665" lon="5.90714">
    <ele>655.019043</ele>
    <name><![CDATA[Boutique]]></name>
    <desc><![CDATA[23-AOU-11 9:51:03]]></desc>
    <cmt><![CDATA[23-AOU-11 9:51:03]]></cmt>
  </wpt>
  <wpt lat="43.99774" lon="5.90384">
    <ele>676</ele>
    <name><![CDATA[Chemin de Forcalquier]]></name>
    <desc><![CDATA[23-AOU-11 9:24:01]]></desc>
    <cmt><![CDATA[23-AOU-11 9:24:01]]></cmt>
  </wpt>
  <wpt lat="43.99924" lon="5.90998">
    <ele>666</ele>
    <name><![CDATA[Croix (vue superbe)]]></name>
    <desc><![CDATA[23-AOU-11 10:07:37]]></desc>
    <cmt><![CDATA[23-AOU-11 10:07:37]]></cmt>
  </wpt>
  <wpt lat="44.00951" lon="5.91652">
    <ele>551</ele>
    <name><![CDATA[Départ Ganagobie]]></name>
    <desc><![CDATA[23-AOU-11 8:13:26]]></desc>
    <cmt><![CDATA[23-AOU-11 8:13:26]]></cmt>
  </wpt>
  <wpt lat="43.99822" lon="5.90788">
    <ele>665.8339844</ele>
    <name><![CDATA[Eglise]]></name>
    <desc><![CDATA[23-AOU-11 10:00:00]]></desc>
    <cmt><![CDATA[23-AOU-11 10:00:00]]></cmt>
  </wpt>
  <wpt lat="44.00138" lon="5.90552">
    <ele>699</ele>
    <name><![CDATA[Fontaine aux Oiseaux]]></name>
    <desc><![CDATA[23-AOU-11 9:07:11]]></desc>
    <cmt><![CDATA[23-AOU-11 9:07:11]]></cmt>
  </wpt>
  <wpt lat="43.99428" lon="5.90672">
    <ele>650.4528809</ele>
    <name><![CDATA[Parking]]></name>
    <desc><![CDATA[23-AOU-11 9:35:42]]></desc>
    <cmt><![CDATA[23-AOU-11 9:35:42]]></cmt>
  </wpt>
  <wpt lat="44.0048" lon="5.91031">
    <ele>704.5266113</ele>
    <name><![CDATA[Ville Vieille]]></name>
    <desc><![CDATA[23-AOU-11 10:31:25]]></desc>
    <cmt><![CDATA[23-AOU-11 10:31:25]]></cmt>
  </wpt>
  <wpt lat="43.99466" lon="5.90474">
    <ele>654</ele>
    <name><![CDATA[Vue sur Lurs]]></name>
    <desc><![CDATA[23-AOU-11 9:30:57]]></desc>
    <cmt><![CDATA[23-AOU-11 9:30:57]]></cmt>
  </wpt>
  <trk>
    <name><![CDATA[ACTIVE LOG 002]]></name>
    <trkseg>
      <trkpt lat="44.00937" lon="5.91678">
        <ele>550.9726563</ele>
        <time>2011-08-23T06:33:16Z</time>
      </trkpt>
      <trkpt lat="44.00945" lon="5.91659">
        <ele>550.9726563</ele>
        <time>2011-08-23T06:33:35Z</time>
      </trkpt>
      <trkpt lat="44.00936" lon="5.91653">
        <ele>550.9726563</ele>
        <time>2011-08-23T06:33:50Z</time>
      </trkpt>
      <trkpt lat="44.00929" lon="5.91634">
        <ele>551.934082</ele>
        <time>2011-08-23T06:34:10Z</time>
      </trkpt>
      <trkpt lat="44.00916" lon="5.91617">
        <ele>554.8178711</ele>
        <time>2011-08-23T06:34:29Z</time>
      </trkpt>
      <trkpt lat="44.00916" lon="5.9161">
        <ele>557.2214355</ele>
        <time>2011-08-23T06:34:34Z</time>
      </trkpt>
      <trkpt lat="44.00914" lon="5.91596">
        <ele>560.1052246</ele>
        <time>2011-08-23T06:34:43Z</time>
      </trkpt>
      <trkpt lat="44.00908" lon="5.91575">
        <ele>563.4699707</ele>
        <time>2011-08-23T06:34:57Z</time>
      </trkpt>
      <trkpt lat="44.0091" lon="5.91569">
        <ele>563.4699707</ele>
        <time>2011-08-23T06:34:58Z</time>
      </trkpt>
      <trkpt lat="44.00912" lon="5.91559">
        <ele>564.9118652</ele>
        <time>2011-08-23T06:35:04Z</time>
      </trkpt>
      <trkpt lat="44.00913" lon="5.91554">
        <ele>564.9118652</ele>
        <time>2011-08-23T06:35:07Z</time>
      </trkpt>
      <trkpt lat="44.00925" lon="5.91559">
        <ele>566.3537598</ele>
        <time>2011-08-23T06:35:19Z</time>
      </trkpt>
      <trkpt lat="44.00929" lon="5.91563">
        <ele>567.3151855</ele>
        <time>2011-08-23T06:35:25Z</time>
      </trkpt>
      <trkpt lat="44.00946" lon="5.91552">
        <ele>568.7570801</ele>
        <time>2011-08-23T06:35:40Z</time>
      </trkpt>
      <trkpt lat="44.00958" lon="5.91544">
        <ele>570.6796875</ele>
        <time>2011-08-23T06:35:54Z</time>
      </trkpt>
      <trkpt lat="44.00967" lon="5.91524">
        <ele>572.6025391</ele>
        <time>2011-08-23T06:36:08Z</time>
      </trkpt>
      <trkpt lat="44.00973" lon="5.91503">
        <ele>574.5251465</ele>
        <time>2011-08-23T06:36:23Z</time>
      </trkpt>
      <trkpt lat="44.00981" lon="5.91481">
        <ele>576.4477539</ele>
        <time>2011-08-23T06:36:38Z</time>
      </trkpt>
      <trkpt lat="44.00989" lon="5.91466">
        <ele>577.8896484</ele>
        <time>2011-08-23T06:36:51Z</time>
      </trkpt>
      <trkpt lat="44.0099" lon="5.91452">
        <ele>578.8510742</ele>
        <time>2011-08-23T06:36:58Z</time>
      </trkpt>
      <trkpt lat="44.00975" lon="5.91446">
        <ele>579.8122559</ele>
        <time>2011-08-23T06:37:12Z</time>
      </trkpt>
      <trkpt lat="44.00972" lon="5.91446">
        <ele>580.2929688</ele>
        <time>2011-08-23T06:37:14Z</time>
      </trkpt>
      <trkpt lat="44.00955" lon="5.91446">
        <ele>581.2543945</ele>
        <time>2011-08-23T06:37:29Z</time>
      </trkpt>
      <trkpt lat="44.00944" lon="5.91443">
        <ele>582.2155762</ele>
        <time>2011-08-23T06:37:40Z</time>
      </trkpt>
      <trkpt lat="44.00928" lon="5.91433">
        <ele>583.6574707</ele>
        <time>2011-08-23T06:37:56Z</time>
      </trkpt>
      <trkpt lat="44.00915" lon="5.91425">
        <ele>584.1381836</ele>
        <time>2011-08-23T06:38:08Z</time>
      </trkpt>
      <trkpt lat="44.009" lon="5.91409">
        <ele>585.0996094</ele>
        <time>2011-08-23T06:38:24Z</time>
      </trkpt>
      <trkpt lat="44.00899" lon="5.914">
        <ele>585.5800781</ele>
        <time>2011-08-23T06:38:30Z</time>
      </trkpt>
      <trkpt lat="44.00903" lon="5.91379">
        <ele>587.5026855</ele>
        <time>2011-08-23T06:38:44Z</time>
      </trkpt>
      <trkpt lat="44.00902" lon="5.91359">
        <ele>589.90625</ele>
        <time>2011-08-23T06:38:57Z</time>
      </trkpt>
      <trkpt lat="44.00901" lon="5.91341">
        <ele>591.8288574</ele>
        <time>2011-08-23T06:39:09Z</time>
      </trkpt>
      <trkpt lat="44.009" lon="5.91337">
        <ele>592.3095703</ele>
        <time>2011-08-23T06:39:12Z</time>
      </trkpt>
      <trkpt lat="44.00889" lon="5.9132">
        <ele>594.2321777</ele>
        <time>2011-08-23T06:39:27Z</time>
      </trkpt>
      <trkpt lat="44.00878" lon="5.91313">
        <ele>596.1547852</ele>
        <time>2011-08-23T06:39:39Z</time>
      </trkpt>
      <trkpt lat="44.00873" lon="5.91312">
        <ele>596.635498</ele>
        <time>2011-08-23T06:39:43Z</time>
      </trkpt>
      <trkpt lat="44.00866" lon="5.91308">
        <ele>598.0773926</ele>
        <time>2011-08-23T06:40:00Z</time>
      </trkpt>
      <trkpt lat="44.00854" lon="5.91297">
        <ele>598.5578613</ele>
        <time>2011-08-23T06:40:18Z</time>
      </trkpt>
      <trkpt lat="44.00838" lon="5.91286">
        <ele>600.4807129</ele>
        <time>2011-08-23T06:40:33Z</time>
      </trkpt>
      <trkpt lat="44.00838" lon="5.91285">
        <ele>600.4807129</ele>
        <time>2011-08-23T06:40:34Z</time>
      </trkpt>
      <trkpt lat="44.0083" lon="5.9128">
        <ele>601.4418945</ele>
        <time>2011-08-23T06:40:41Z</time>
      </trkpt>
      <trkpt lat="44.00826" lon="5.91276">
        <ele>601.9226074</ele>
        <time>2011-08-23T06:40:46Z</time>
      </trkpt>
      <trkpt lat="44.00814" lon="5.9127">
        <ele>603.8452148</ele>
        <time>2011-08-23T06:40:58Z</time>
      </trkpt>
      <trkpt lat="44.00799" lon="5.91274">
        <ele>605.2873535</ele>
        <time>2011-08-23T06:41:12Z</time>
      </trkpt>
      <trkpt lat="44.0079" lon="5.91276">
        <ele>606.729248</ele>
        <time>2011-08-23T06:41:21Z</time>
      </trkpt>
      <trkpt lat="44.00774" lon="5.91271">
        <ele>608.6518555</ele>
        <time>2011-08-23T06:41:35Z</time>
      </trkpt>
      <trkpt lat="44.00761" lon="5.91265">
        <ele>609.6132813</ele>
        <time>2011-08-23T06:41:48Z</time>
      </trkpt>
      <trkpt lat="44.00754" lon="5.91261">
        <ele>610.5744629</ele>
        <time>2011-08-23T06:41:54Z</time>
      </trkpt>
      <trkpt lat="44.00755" lon="5.91249">
        <ele>611.5358887</ele>
        <time>2011-08-23T06:42:02Z</time>
      </trkpt>
      <trkpt lat="44.00767" lon="5.91231">
        <ele>613.9389648</ele>
        <time>2011-08-23T06:42:17Z</time>
      </trkpt>
      <trkpt lat="44.00772" lon="5.91216">
        <ele>614.9003906</ele>
        <time>2011-08-23T06:42:29Z</time>
      </trkpt>
      <trkpt lat="44.00773" lon="5.91214">
        <ele>614.9003906</ele>
        <time>2011-08-23T06:42:30Z</time>
      </trkpt>
      <trkpt lat="44.00773" lon="5.91205">
        <ele>615.3811035</ele>
        <time>2011-08-23T06:42:37Z</time>
      </trkpt>
      <trkpt lat="44.00774" lon="5.91184">
        <ele>616.3422852</ele>
        <time>2011-08-23T06:42:49Z</time>
      </trkpt>
      <trkpt lat="44.00776" lon="5.91155">
        <ele>617.7841797</ele>
        <time>2011-08-23T06:43:05Z</time>
      </trkpt>
      <trkpt lat="44.00777" lon="5.91153">
        <ele>617.7841797</ele>
        <time>2011-08-23T06:43:06Z</time>
      </trkpt>
      <trkpt lat="44.00779" lon="5.91133">
        <ele>618.7456055</ele>
        <time>2011-08-23T06:43:21Z</time>
      </trkpt>
      <trkpt lat="44.00779" lon="5.91125">
        <ele>618.7456055</ele>
        <time>2011-08-23T06:43:25Z</time>
      </trkpt>
      <trkpt lat="44.0078" lon="5.91099">
        <ele>620.1877441</ele>
        <time>2011-08-23T06:43:39Z</time>
      </trkpt>
      <trkpt lat="44.00777" lon="5.91079">
        <ele>620.668457</ele>
        <time>2011-08-23T06:43:51Z</time>
      </trkpt>
      <trkpt lat="44.00773" lon="5.91071">
        <ele>621.6296387</ele>
        <time>2011-08-23T06:43:57Z</time>
      </trkpt>
      <trkpt lat="44.00765" lon="5.91044">
        <ele>623.5524902</ele>
        <time>2011-08-23T06:44:13Z</time>
      </trkpt>
      <trkpt lat="44.00762" lon="5.9103">
        <ele>624.5136719</ele>
        <time>2011-08-23T06:44:24Z</time>
      </trkpt>
      <trkpt lat="44.0076" lon="5.91022">
        <ele>625.4748535</ele>
        <time>2011-08-23T06:44:30Z</time>
      </trkpt>
      <trkpt lat="44.0075" lon="5.91001">
        <ele>627.3977051</ele>
        <time>2011-08-23T06:44:46Z</time>
      </trkpt>
      <trkpt lat="44.00749" lon="5.90998">
        <ele>627.8781738</ele>
        <time>2011-08-23T06:44:48Z</time>
      </trkpt>
      <trkpt lat="44.00748" lon="5.90996">
        <ele>627.8781738</ele>
        <time>2011-08-23T06:44:50Z</time>
      </trkpt>
      <trkpt lat="44.00741" lon="5.90983">
        <ele>628.8395996</ele>
        <time>2011-08-23T06:44:59Z</time>
      </trkpt>
      <trkpt lat="44.00732" lon="5.90965">
        <ele>629.8007813</ele>
        <time>2011-08-23T06:45:14Z</time>
      </trkpt>
      <trkpt lat="44.00725" lon="5.90943">
        <ele>631.7233887</ele>
        <time>2011-08-23T06:45:28Z</time>
      </trkpt>
      <trkpt lat="44.00716" lon="5.90921">
        <ele>633.1652832</ele>
        <time>2011-08-23T06:45:43Z</time>
      </trkpt>
      <trkpt lat="44.00712" lon="5.90897">
        <ele>634.126709</ele>
        <time>2011-08-23T06:45:58Z</time>
      </trkpt>
      <trkpt lat="44.00711" lon="5.90873">
        <ele>635.0881348</ele>
        <time>2011-08-23T06:46:12Z</time>
      </trkpt>
      <trkpt lat="44.00714" lon="5.90855">
        <ele>635.5686035</ele>
        <time>2011-08-23T06:46:23Z</time>
      </trkpt>
      <trkpt lat="44.00719" lon="5.90836">
        <ele>636.0495605</ele>
        <time>2011-08-23T06:46:38Z</time>
      </trkpt>
      <trkpt lat="44.00719" lon="5.90834">
        <ele>636.5302734</ele>
        <time>2011-08-23T06:47:04Z</time>
      </trkpt>
      <trkpt lat="44.00712" lon="5.90829">
        <ele>637.972168</ele>
        <time>2011-08-23T06:49:28Z</time>
      </trkpt>
      <trkpt lat="44.00708" lon="5.90832">
        <ele>637.972168</ele>
        <time>2011-08-23T06:49:41Z</time>
      </trkpt>
      <trkpt lat="44.00693" lon="5.90841">
        <ele>640.3754883</ele>
        <time>2011-08-23T06:49:54Z</time>
      </trkpt>
      <trkpt lat="44.00685" lon="5.90835">
        <ele>641.3366699</ele>
        <time>2011-08-23T06:50:01Z</time>
      </trkpt>
      <trkpt lat="44.00682" lon="5.90833">
        <ele>642.2980957</ele>
        <time>2011-08-23T06:50:04Z</time>
      </trkpt>
      <trkpt lat="44.00666" lon="5.90825">
        <ele>644.2207031</ele>
        <time>2011-08-23T06:50:19Z</time>
      </trkpt>
      <trkpt lat="44.00653" lon="5.90816">
        <ele>646.6240234</ele>
        <time>2011-08-23T06:50:32Z</time>
      </trkpt>
      <trkpt lat="44.0064" lon="5.90814">
        <ele>648.065918</ele>
        <time>2011-08-23T06:50:44Z</time>
      </trkpt>
      <trkpt lat="44.00626" lon="5.90812">
        <ele>649.9885254</ele>
        <time>2011-08-23T06:50:57Z</time>
      </trkpt>
      <trkpt lat="44.00612" lon="5.90806">
        <ele>652.3918457</ele>
        <time>2011-08-23T06:51:10Z</time>
      </trkpt>
      <trkpt lat="44.00607" lon="5.90801">
        <ele>652.8725586</ele>
        <time>2011-08-23T06:51:15Z</time>
      </trkpt>
      <trkpt lat="44.0059" lon="5.90794">
        <ele>654.795166</ele>
        <time>2011-08-23T06:51:32Z</time>
      </trkpt>
      <trkpt lat="44.00589" lon="5.90794">
        <ele>654.795166</ele>
        <time>2011-08-23T06:51:33Z</time>
      </trkpt>
      <trkpt lat="44.00582" lon="5.90792">
        <ele>655.2758789</ele>
        <time>2011-08-23T06:51:39Z</time>
      </trkpt>
      <trkpt lat="44.00577" lon="5.90792">
        <ele>656.2370605</ele>
        <time>2011-08-23T06:51:44Z</time>
      </trkpt>
      <trkpt lat="44.00562" lon="5.90786">
        <ele>658.1599121</ele>
        <time>2011-08-23T06:51:58Z</time>
      </trkpt>
      <trkpt lat="44.00558" lon="5.90783">
        <ele>658.6403809</ele>
        <time>2011-08-23T06:52:01Z</time>
      </trkpt>
      <trkpt lat="44.00546" lon="5.90784">
        <ele>661.0437012</ele>
        <time>2011-08-23T06:52:14Z</time>
      </trkpt>
      <trkpt lat="44.00545" lon="5.90784">
        <ele>661.0437012</ele>
        <time>2011-08-23T06:52:16Z</time>
      </trkpt>
      <trkpt lat="44.0053" lon="5.90784">
        <ele>663.4470215</ele>
        <time>2011-08-23T06:52:30Z</time>
      </trkpt>
      <trkpt lat="44.00523" lon="5.90783">
        <ele>664.4082031</ele>
        <time>2011-08-23T06:52:47Z</time>
      </trkpt>
      <trkpt lat="44.00511" lon="5.90784">
        <ele>665.8503418</ele>
        <time>2011-08-23T06:53:10Z</time>
      </trkpt>
      <trkpt lat="44.00507" lon="5.90785">
        <ele>666.8115234</ele>
        <time>2011-08-23T06:53:14Z</time>
      </trkpt>
      <trkpt lat="44.00494" lon="5.90781">
        <ele>668.734375</ele>
        <time>2011-08-23T06:53:27Z</time>
      </trkpt>
      <trkpt lat="44.0049" lon="5.9078">
        <ele>668.734375</ele>
        <time>2011-08-23T06:53:30Z</time>
      </trkpt>
      <trkpt lat="44.00478" lon="5.90775">
        <ele>671.1376953</ele>
        <time>2011-08-23T06:53:43Z</time>
      </trkpt>
      <trkpt lat="44.00463" lon="5.90769">
        <ele>672.098877</ele>
        <time>2011-08-23T06:53:56Z</time>
      </trkpt>
      <trkpt lat="44.00452" lon="5.90767">
        <ele>674.0214844</ele>
        <time>2011-08-23T06:54:09Z</time>
      </trkpt>
      <trkpt lat="44.00441" lon="5.90763">
        <ele>675.4633789</ele>
        <time>2011-08-23T06:54:22Z</time>
      </trkpt>
      <trkpt lat="44.00425" lon="5.90767">
        <ele>677.8666992</ele>
        <time>2011-08-23T06:54:38Z</time>
      </trkpt>
      <trkpt lat="44.0042" lon="5.90766">
        <ele>678.3474121</ele>
        <time>2011-08-23T06:54:43Z</time>
      </trkpt>
      <trkpt lat="44.00416" lon="5.90763">
        <ele>678.828125</ele>
        <time>2011-08-23T06:54:47Z</time>
      </trkpt>
      <trkpt lat="44.00406" lon="5.90759">
        <ele>680.2700195</ele>
        <time>2011-08-23T06:54:58Z</time>
      </trkpt>
      <trkpt lat="44.00401" lon="5.90757">
        <ele>680.2700195</ele>
        <time>2011-08-23T06:55:02Z</time>
      </trkpt>
      <trkpt lat="44.00393" lon="5.90752">
        <ele>680.7507324</ele>
        <time>2011-08-23T06:55:09Z</time>
      </trkpt>
      <trkpt lat="44.0038" lon="5.90745">
        <ele>681.7119141</ele>
        <time>2011-08-23T06:55:23Z</time>
      </trkpt>
      <trkpt lat="44.00375" lon="5.90743">
        <ele>682.192627</ele>
        <time>2011-08-23T06:55:26Z</time>
      </trkpt>
      <trkpt lat="44.00363" lon="5.90737">
        <ele>682.6733398</ele>
        <time>2011-08-23T06:55:38Z</time>
      </trkpt>
      <trkpt lat="44.00351" lon="5.9073">
        <ele>684.5961914</ele>
        <time>2011-08-23T06:55:52Z</time>
      </trkpt>
      <trkpt lat="44.00342" lon="5.9073">
        <ele>686.0380859</ele>
        <time>2011-08-23T06:56:06Z</time>
      </trkpt>
      <trkpt lat="44.00329" lon="5.90725">
        <ele>687.4799805</ele>
        <time>2011-08-23T06:56:31Z</time>
      </trkpt>
      <trkpt lat="44.00316" lon="5.90719">
        <ele>690.3640137</ele>
        <time>2011-08-23T06:56:47Z</time>
      </trkpt>
      <trkpt lat="44.003" lon="5.90717">
        <ele>693.2478027</ele>
        <time>2011-08-23T06:57:04Z</time>
      </trkpt>
      <trkpt lat="44.00289" lon="5.90714">
        <ele>695.1704102</ele>
        <time>2011-08-23T06:57:17Z</time>
      </trkpt>
      <trkpt lat="44.00275" lon="5.90707">
        <ele>698.0544434</ele>
        <time>2011-08-23T06:57:32Z</time>
      </trkpt>
      <trkpt lat="44.00265" lon="5.90706">
        <ele>699.4963379</ele>
        <time>2011-08-23T06:57:46Z</time>
      </trkpt>
      <trkpt lat="44.00264" lon="5.90706">
        <ele>699.9770508</ele>
        <time>2011-08-23T06:58:56Z</time>
      </trkpt>
      <trkpt lat="44.00253" lon="5.90695">
        <ele>699.4963379</ele>
        <time>2011-08-23T07:00:25Z</time>
      </trkpt>
      <trkpt lat="44.00245" lon="5.90688">
        <ele>699.4963379</ele>
        <time>2011-08-23T07:00:39Z</time>
      </trkpt>
      <trkpt lat="44.00238" lon="5.90681">
        <ele>699.4963379</ele>
        <time>2011-08-23T07:00:53Z</time>
      </trkpt>
      <trkpt lat="44.00235" lon="5.9068">
        <ele>699.015625</ele>
        <time>2011-08-23T07:01:09Z</time>
      </trkpt>
      <trkpt lat="44.00234" lon="5.90666">
        <ele>699.9770508</ele>
        <time>2011-08-23T07:01:25Z</time>
      </trkpt>
      <trkpt lat="44.00233" lon="5.90666">
        <ele>699.4963379</ele>
        <time>2011-08-23T07:01:37Z</time>
      </trkpt>
      <trkpt lat="44.00219" lon="5.90664">
        <ele>698.5349121</ele>
        <time>2011-08-23T07:01:52Z</time>
      </trkpt>
      <trkpt lat="44.0022" lon="5.90665">
        <ele>698.5349121</ele>
        <time>2011-08-23T07:02:02Z</time>
      </trkpt>
      <trkpt lat="44.00213" lon="5.90661">
        <ele>698.5349121</ele>
        <time>2011-08-23T07:02:08Z</time>
      </trkpt>
      <trkpt lat="44.00203" lon="5.90646">
        <ele>698.0544434</ele>
        <time>2011-08-23T07:02:19Z</time>
      </trkpt>
      <trkpt lat="44.00205" lon="5.9064">
        <ele>698.0544434</ele>
        <time>2011-08-23T07:02:24Z</time>
      </trkpt>
      <trkpt lat="44.00202" lon="5.90619">
        <ele>698.5349121</ele>
        <time>2011-08-23T07:02:38Z</time>
      </trkpt>
      <trkpt lat="44.00199" lon="5.90615">
        <ele>699.015625</ele>
        <time>2011-08-23T07:02:41Z</time>
      </trkpt>
      <trkpt lat="44.00196" lon="5.90608">
        <ele>699.015625</ele>
        <time>2011-08-23T07:02:47Z</time>
      </trkpt>
      <trkpt lat="44.00195" lon="5.90606">
        <ele>699.015625</ele>
        <time>2011-08-23T07:02:49Z</time>
      </trkpt>
      <trkpt lat="44.00198" lon="5.90597">
        <ele>699.4963379</ele>
        <time>2011-08-23T07:03:02Z</time>
      </trkpt>
      <trkpt lat="44.00197" lon="5.90597">
        <ele>699.4963379</ele>
        <time>2011-08-23T07:03:13Z</time>
      </trkpt>
      <trkpt lat="44.00193" lon="5.90599">
        <ele>699.015625</ele>
        <time>2011-08-23T07:03:18Z</time>
      </trkpt>
      <trkpt lat="44.00192" lon="5.90583">
        <ele>699.4963379</ele>
        <time>2011-08-23T07:03:34Z</time>
      </trkpt>
      <trkpt lat="44.00187" lon="5.9058">
        <ele>699.4963379</ele>
        <time>2011-08-23T07:04:59Z</time>
      </trkpt>
      <trkpt lat="44.00171" lon="5.9057">
        <ele>699.4963379</ele>
        <time>2011-08-23T07:05:14Z</time>
      </trkpt>
      <trkpt lat="44.00157" lon="5.90561">
        <ele>700.4580078</ele>
        <time>2011-08-23T07:05:30Z</time>
      </trkpt>
      <trkpt lat="44.00143" lon="5.90555">
        <ele>699.4963379</ele>
        <time>2011-08-23T07:05:44Z</time>
      </trkpt>
      <trkpt lat="44.00138" lon="5.90552">
        <ele>699.015625</ele>
        <time>2011-08-23T07:05:58Z</time>
      </trkpt>
      <trkpt lat="44.00138" lon="5.90551">
        <ele>699.015625</ele>
        <time>2011-08-23T07:07:59Z</time>
      </trkpt>
      <trkpt lat="44.00133" lon="5.9054">
        <ele>699.015625</ele>
        <time>2011-08-23T07:08:13Z</time>
      </trkpt>
      <trkpt lat="44.00127" lon="5.90538">
        <ele>698.0544434</ele>
        <time>2011-08-23T07:09:23Z</time>
      </trkpt>
      <trkpt lat="44.00112" lon="5.90534">
        <ele>697.0930176</ele>
        <time>2011-08-23T07:09:39Z</time>
      </trkpt>
      <trkpt lat="44.00104" lon="5.90529">
        <ele>696.1318359</ele>
        <time>2011-08-23T07:09:48Z</time>
      </trkpt>
      <trkpt lat="44.00099" lon="5.90525">
        <ele>696.1318359</ele>
        <time>2011-08-23T07:10:03Z</time>
      </trkpt>
      <trkpt lat="44.00087" lon="5.90518">
        <ele>695.651123</ele>
        <time>2011-08-23T07:10:33Z</time>
      </trkpt>
      <trkpt lat="44.00077" lon="5.90518">
        <ele>694.2092285</ele>
        <time>2011-08-23T07:10:47Z</time>
      </trkpt>
      <trkpt lat="44.00074" lon="5.90518">
        <ele>693.7285156</ele>
        <time>2011-08-23T07:10:50Z</time>
      </trkpt>
      <trkpt lat="44.00073" lon="5.90513">
        <ele>693.2478027</ele>
        <time>2011-08-23T07:11:05Z</time>
      </trkpt>
      <trkpt lat="44.00071" lon="5.9051">
        <ele>693.2478027</ele>
        <time>2011-08-23T07:11:22Z</time>
      </trkpt>
      <trkpt lat="44.00068" lon="5.9051">
        <ele>692.2866211</ele>
        <time>2011-08-23T07:12:28Z</time>
      </trkpt>
      <trkpt lat="44.00061" lon="5.90514">
        <ele>690.3640137</ele>
        <time>2011-08-23T07:12:53Z</time>
      </trkpt>
      <trkpt lat="44.00056" lon="5.90525">
        <ele>690.3640137</ele>
        <time>2011-08-23T07:13:07Z</time>
      </trkpt>
      <trkpt lat="44.00057" lon="5.90522">
        <ele>689.8833008</ele>
        <time>2011-08-23T07:13:48Z</time>
      </trkpt>
      <trkpt lat="44.00057" lon="5.90519">
        <ele>689.8833008</ele>
        <time>2011-08-23T07:13:51Z</time>
      </trkpt>
      <trkpt lat="44.00053" lon="5.9051">
        <ele>690.3640137</ele>
        <time>2011-08-23T07:14:00Z</time>
      </trkpt>
      <trkpt lat="44.00038" lon="5.90503">
        <ele>688.9221191</ele>
        <time>2011-08-23T07:14:14Z</time>
      </trkpt>
      <trkpt lat="44.00023" lon="5.90495">
        <ele>687.9606934</ele>
        <time>2011-08-23T07:14:29Z</time>
      </trkpt>
      <trkpt lat="44.00013" lon="5.90488">
        <ele>686.5187988</ele>
        <time>2011-08-23T07:14:41Z</time>
      </trkpt>
      <trkpt lat="44.00007" lon="5.90486">
        <ele>686.5187988</ele>
        <time>2011-08-23T07:14:51Z</time>
      </trkpt>
      <trkpt lat="43.99995" lon="5.90482">
        <ele>685.557373</ele>
        <time>2011-08-23T07:15:06Z</time>
      </trkpt>
      <trkpt lat="43.99995" lon="5.90479">
        <ele>685.557373</ele>
        <time>2011-08-23T07:15:21Z</time>
      </trkpt>
      <trkpt lat="43.99997" lon="5.90477">
        <ele>685.0769043</ele>
        <time>2011-08-23T07:15:34Z</time>
      </trkpt>
      <trkpt lat="43.99981" lon="5.90472">
        <ele>684.1154785</ele>
        <time>2011-08-23T07:16:26Z</time>
      </trkpt>
      <trkpt lat="43.99966" lon="5.90468">
        <ele>682.192627</ele>
        <time>2011-08-23T07:16:43Z</time>
      </trkpt>
      <trkpt lat="43.99956" lon="5.90463">
        <ele>682.6733398</ele>
        <time>2011-08-23T07:16:57Z</time>
      </trkpt>
      <trkpt lat="43.99947" lon="5.90455">
        <ele>682.192627</ele>
        <time>2011-08-23T07:17:09Z</time>
      </trkpt>
      <trkpt lat="43.99935" lon="5.90449">
        <ele>681.7119141</ele>
        <time>2011-08-23T07:17:22Z</time>
      </trkpt>
      <trkpt lat="43.99925" lon="5.90444">
        <ele>680.7507324</ele>
        <time>2011-08-23T07:17:33Z</time>
      </trkpt>
      <trkpt lat="43.99921" lon="5.90438">
        <ele>680.2700195</ele>
        <time>2011-08-23T07:17:51Z</time>
      </trkpt>
      <trkpt lat="43.99911" lon="5.90437">
        <ele>681.2314453</ele>
        <time>2011-08-23T07:18:10Z</time>
      </trkpt>
      <trkpt lat="43.99903" lon="5.9044">
        <ele>681.2314453</ele>
        <time>2011-08-23T07:18:20Z</time>
      </trkpt>
      <trkpt lat="43.999" lon="5.90442">
        <ele>681.2314453</ele>
        <time>2011-08-23T07:18:24Z</time>
      </trkpt>
      <trkpt lat="43.99893" lon="5.90441">
        <ele>680.7507324</ele>
        <time>2011-08-23T07:18:30Z</time>
      </trkpt>
      <trkpt lat="43.99878" lon="5.90428">
        <ele>680.2700195</ele>
        <time>2011-08-23T07:18:44Z</time>
      </trkpt>
      <trkpt lat="43.99874" lon="5.90423">
        <ele>679.7893066</ele>
        <time>2011-08-23T07:18:56Z</time>
      </trkpt>
      <trkpt lat="43.99872" lon="5.90417">
        <ele>679.3085938</ele>
        <time>2011-08-23T07:19:13Z</time>
      </trkpt>
      <trkpt lat="43.9987" lon="5.90421">
        <ele>680.2700195</ele>
        <time>2011-08-23T07:19:27Z</time>
      </trkpt>
      <trkpt lat="43.99863" lon="5.90413">
        <ele>679.3085938</ele>
        <time>2011-08-23T07:19:53Z</time>
      </trkpt>
      <trkpt lat="43.99858" lon="5.90415">
        <ele>678.828125</ele>
        <time>2011-08-23T07:20:17Z</time>
      </trkpt>
      <trkpt lat="43.99848" lon="5.90416">
        <ele>679.3085938</ele>
        <time>2011-08-23T07:20:28Z</time>
      </trkpt>
      <trkpt lat="43.99841" lon="5.9041">
        <ele>678.3474121</ele>
        <time>2011-08-23T07:20:36Z</time>
      </trkpt>
      <trkpt lat="43.9984" lon="5.90406">
        <ele>677.3862305</ele>
        <time>2011-08-23T07:20:55Z</time>
      </trkpt>
      <trkpt lat="43.99837" lon="5.90404">
        <ele>676.9055176</ele>
        <time>2011-08-23T07:22:17Z</time>
      </trkpt>
      <trkpt lat="43.99831" lon="5.90403">
        <ele>676.9055176</ele>
        <time>2011-08-23T07:22:21Z</time>
      </trkpt>
      <trkpt lat="43.99819" lon="5.90397">
        <ele>676.4248047</ele>
        <time>2011-08-23T07:22:31Z</time>
      </trkpt>
      <trkpt lat="43.99807" lon="5.90388">
        <ele>676.4248047</ele>
        <time>2011-08-23T07:22:42Z</time>
      </trkpt>
      <trkpt lat="43.99793" lon="5.90384">
        <ele>675.9440918</ele>
        <time>2011-08-23T07:22:57Z</time>
      </trkpt>
      <trkpt lat="43.99789" lon="5.90384">
        <ele>676.4248047</ele>
        <time>2011-08-23T07:23:01Z</time>
      </trkpt>
      <trkpt lat="43.99774" lon="5.90385">
        <ele>675.9440918</ele>
        <time>2011-08-23T07:23:15Z</time>
      </trkpt>
      <trkpt lat="43.99773" lon="5.90385">
        <ele>676.4248047</ele>
        <time>2011-08-23T07:23:45Z</time>
      </trkpt>
      <trkpt lat="43.99768" lon="5.90375">
        <ele>675.4633789</ele>
        <time>2011-08-23T07:25:07Z</time>
      </trkpt>
      <trkpt lat="43.99762" lon="5.90373">
        <ele>675.4633789</ele>
        <time>2011-08-23T07:25:12Z</time>
      </trkpt>
      <trkpt lat="43.99752" lon="5.90382">
        <ele>674.9829102</ele>
        <time>2011-08-23T07:25:28Z</time>
      </trkpt>
      <trkpt lat="43.99749" lon="5.90382">
        <ele>674.9829102</ele>
        <time>2011-08-23T07:25:39Z</time>
      </trkpt>
      <trkpt lat="43.99734" lon="5.9038">
        <ele>673.5410156</ele>
        <time>2011-08-23T07:25:52Z</time>
      </trkpt>
      <trkpt lat="43.99723" lon="5.90373">
        <ele>672.5795898</ele>
        <time>2011-08-23T07:26:07Z</time>
      </trkpt>
      <trkpt lat="43.99721" lon="5.90374">
        <ele>672.5795898</ele>
        <time>2011-08-23T07:26:09Z</time>
      </trkpt>
      <trkpt lat="43.99706" lon="5.90373">
        <ele>672.098877</ele>
        <time>2011-08-23T07:26:21Z</time>
      </trkpt>
      <trkpt lat="43.99689" lon="5.90367">
        <ele>670.1762695</ele>
        <time>2011-08-23T07:26:35Z</time>
      </trkpt>
      <trkpt lat="43.99676" lon="5.90363">
        <ele>669.2150879</ele>
        <time>2011-08-23T07:26:48Z</time>
      </trkpt>
      <trkpt lat="43.99667" lon="5.90368">
        <ele>668.734375</ele>
        <time>2011-08-23T07:27:05Z</time>
      </trkpt>
      <trkpt lat="43.9966" lon="5.90371">
        <ele>668.734375</ele>
        <time>2011-08-23T07:27:10Z</time>
      </trkpt>
      <trkpt lat="43.99645" lon="5.90378">
        <ele>668.2536621</ele>
        <time>2011-08-23T07:27:23Z</time>
      </trkpt>
      <trkpt lat="43.99631" lon="5.90386">
        <ele>667.7727051</ele>
        <time>2011-08-23T07:27:34Z</time>
      </trkpt>
      <trkpt lat="43.99613" lon="5.90396">
        <ele>666.3308105</ele>
        <time>2011-08-23T07:27:49Z</time>
      </trkpt>
      <trkpt lat="43.99612" lon="5.90397">
        <ele>666.3308105</ele>
        <time>2011-08-23T07:27:50Z</time>
      </trkpt>
      <trkpt lat="43.99604" lon="5.90399">
        <ele>665.8503418</ele>
        <time>2011-08-23T07:27:56Z</time>
      </trkpt>
      <trkpt lat="43.99592" lon="5.90403">
        <ele>665.3696289</ele>
        <time>2011-08-23T07:28:06Z</time>
      </trkpt>
      <trkpt lat="43.99579" lon="5.90397">
        <ele>663.9274902</ele>
        <time>2011-08-23T07:28:23Z</time>
      </trkpt>
      <trkpt lat="43.99571" lon="5.90397">
        <ele>662.005127</ele>
        <time>2011-08-23T07:28:36Z</time>
      </trkpt>
      <trkpt lat="43.99567" lon="5.90394">
        <ele>661.0437012</ele>
        <time>2011-08-23T07:28:41Z</time>
      </trkpt>
      <trkpt lat="43.99556" lon="5.90393">
        <ele>660.0822754</ele>
        <time>2011-08-23T07:28:51Z</time>
      </trkpt>
      <trkpt lat="43.9954" lon="5.90417">
        <ele>659.6018066</ele>
        <time>2011-08-23T07:29:07Z</time>
      </trkpt>
      <trkpt lat="43.99539" lon="5.9042">
        <ele>659.6018066</ele>
        <time>2011-08-23T07:29:09Z</time>
      </trkpt>
      <trkpt lat="43.9952" lon="5.90429">
        <ele>658.6403809</ele>
        <time>2011-08-23T07:29:24Z</time>
      </trkpt>
      <trkpt lat="43.99507" lon="5.90433">
        <ele>656.7177734</ele>
        <time>2011-08-23T07:29:34Z</time>
      </trkpt>
      <trkpt lat="43.995" lon="5.90437">
        <ele>655.7565918</ele>
        <time>2011-08-23T07:29:40Z</time>
      </trkpt>
      <trkpt lat="43.99483" lon="5.90451">
        <ele>654.3146973</ele>
        <time>2011-08-23T07:29:57Z</time>
      </trkpt>
      <trkpt lat="43.99469" lon="5.90469">
        <ele>653.8339844</ele>
        <time>2011-08-23T07:30:10Z</time>
      </trkpt>
      <trkpt lat="43.99466" lon="5.90474">
        <ele>653.3532715</ele>
        <time>2011-08-23T07:30:23Z</time>
      </trkpt>
      <trkpt lat="43.99466" lon="5.90478">
        <ele>653.8339844</ele>
        <time>2011-08-23T07:31:35Z</time>
      </trkpt>
      <trkpt lat="43.99463" lon="5.90493">
        <ele>653.3532715</ele>
        <time>2011-08-23T07:31:43Z</time>
      </trkpt>
      <trkpt lat="43.99455" lon="5.90513">
        <ele>652.8725586</ele>
        <time>2011-08-23T07:31:57Z</time>
      </trkpt>
      <trkpt lat="43.99453" lon="5.90514">
        <ele>653.3532715</ele>
        <time>2011-08-23T07:32:27Z</time>
      </trkpt>
      <trkpt lat="43.99446" lon="5.90529">
        <ele>651.9111328</ele>
        <time>2011-08-23T07:33:17Z</time>
      </trkpt>
      <trkpt lat="43.99448" lon="5.90544">
        <ele>653.8339844</ele>
        <time>2011-08-23T07:33:28Z</time>
      </trkpt>
      <trkpt lat="43.99447" lon="5.90549">
        <ele>653.8339844</ele>
        <time>2011-08-23T07:33:31Z</time>
      </trkpt>
      <trkpt lat="43.99449" lon="5.9056">
        <ele>654.3146973</ele>
        <time>2011-08-23T07:33:37Z</time>
      </trkpt>
      <trkpt lat="43.99445" lon="5.90591">
        <ele>653.8339844</ele>
        <time>2011-08-23T07:33:53Z</time>
      </trkpt>
      <trkpt lat="43.99438" lon="5.90619">
        <ele>652.3918457</ele>
        <time>2011-08-23T07:34:09Z</time>
      </trkpt>
      <trkpt lat="43.99435" lon="5.90629">
        <ele>652.3918457</ele>
        <time>2011-08-23T07:34:15Z</time>
      </trkpt>
      <trkpt lat="43.99435" lon="5.90636">
        <ele>651.9111328</ele>
        <time>2011-08-23T07:34:19Z</time>
      </trkpt>
      <trkpt lat="43.99429" lon="5.90664">
        <ele>650.4692383</ele>
        <time>2011-08-23T07:34:36Z</time>
      </trkpt>
      <trkpt lat="43.99429" lon="5.90673">
        <ele>650.4692383</ele>
        <time>2011-08-23T07:34:54Z</time>
      </trkpt>
      <trkpt lat="43.99429" lon="5.90673">
        <ele>650.4692383</ele>
        <time>2011-08-23T07:35:24Z</time>
      </trkpt>
      <trkpt lat="43.99436" lon="5.90664">
        <ele>650.949707</ele>
        <time>2011-08-23T07:36:48Z</time>
      </trkpt>
      <trkpt lat="43.99444" lon="5.90681">
        <ele>649.9885254</ele>
        <time>2011-08-23T07:37:01Z</time>
      </trkpt>
      <trkpt lat="43.99449" lon="5.90693">
        <ele>649.5078125</ele>
        <time>2011-08-23T07:37:09Z</time>
      </trkpt>
      <trkpt lat="43.99456" lon="5.907">
        <ele>649.0270996</ele>
        <time>2011-08-23T07:37:15Z</time>
      </trkpt>
      <trkpt lat="43.99461" lon="5.90701">
        <ele>648.065918</ele>
        <time>2011-08-23T07:37:27Z</time>
      </trkpt>
      <trkpt lat="43.99461" lon="5.90696">
        <ele>649.0270996</ele>
        <time>2011-08-23T07:37:41Z</time>
      </trkpt>
      <trkpt lat="43.99466" lon="5.90668">
        <ele>650.4692383</ele>
        <time>2011-08-23T07:37:59Z</time>
      </trkpt>
      <trkpt lat="43.99466" lon="5.90651">
        <ele>651.4304199</ele>
        <time>2011-08-23T07:38:08Z</time>
      </trkpt>
      <trkpt lat="43.99468" lon="5.90645">
        <ele>651.9111328</ele>
        <time>2011-08-23T07:38:12Z</time>
      </trkpt>
      <trkpt lat="43.99479" lon="5.90625">
        <ele>652.8725586</ele>
        <time>2011-08-23T07:38:26Z</time>
      </trkpt>
      <trkpt lat="43.99491" lon="5.90616">
        <ele>653.3532715</ele>
        <time>2011-08-23T07:38:38Z</time>
      </trkpt>
      <trkpt lat="43.99491" lon="5.90618">
        <ele>654.3146973</ele>
        <time>2011-08-23T07:39:14Z</time>
      </trkpt>
      <trkpt lat="43.99496" lon="5.90617">
        <ele>653.8339844</ele>
        <time>2011-08-23T07:40:59Z</time>
      </trkpt>
      <trkpt lat="43.99501" lon="5.90613">
        <ele>654.3146973</ele>
        <time>2011-08-23T07:41:18Z</time>
      </trkpt>
      <trkpt lat="43.99521" lon="5.90606">
        <ele>655.2758789</ele>
        <time>2011-08-23T07:41:34Z</time>
      </trkpt>
      <trkpt lat="43.99536" lon="5.90594">
        <ele>656.2370605</ele>
        <time>2011-08-23T07:41:47Z</time>
      </trkpt>
      <trkpt lat="43.99537" lon="5.90592">
        <ele>656.2370605</ele>
        <time>2011-08-23T07:41:51Z</time>
      </trkpt>
      <trkpt lat="43.99524" lon="5.90581">
        <ele>656.2370605</ele>
        <time>2011-08-23T07:42:03Z</time>
      </trkpt>
      <trkpt lat="43.99517" lon="5.90573">
        <ele>656.7177734</ele>
        <time>2011-08-23T07:42:10Z</time>
      </trkpt>
      <trkpt lat="43.99513" lon="5.90563">
        <ele>656.7177734</ele>
        <time>2011-08-23T07:42:17Z</time>
      </trkpt>
      <trkpt lat="43.99517" lon="5.90544">
        <ele>658.1599121</ele>
        <time>2011-08-23T07:42:28Z</time>
      </trkpt>
      <trkpt lat="43.99532" lon="5.9053">
        <ele>659.6018066</ele>
        <time>2011-08-23T07:42:42Z</time>
      </trkpt>
      <trkpt lat="43.99543" lon="5.90522">
        <ele>661.0437012</ele>
        <time>2011-08-23T07:42:55Z</time>
      </trkpt>
      <trkpt lat="43.99543" lon="5.90519">
        <ele>661.0437012</ele>
        <time>2011-08-23T07:42:59Z</time>
      </trkpt>
      <trkpt lat="43.99541" lon="5.90511">
        <ele>661.5244141</ele>
        <time>2011-08-23T07:43:03Z</time>
      </trkpt>
      <trkpt lat="43.99539" lon="5.90508">
        <ele>661.5244141</ele>
        <time>2011-08-23T07:43:05Z</time>
      </trkpt>
      <trkpt lat="43.99539" lon="5.90496">
        <ele>662.005127</ele>
        <time>2011-08-23T07:43:12Z</time>
      </trkpt>
      <trkpt lat="43.99547" lon="5.90489">
        <ele>662.9663086</ele>
        <time>2011-08-23T07:43:25Z</time>
      </trkpt>
      <trkpt lat="43.99549" lon="5.9049">
        <ele>662.9663086</ele>
        <time>2011-08-23T07:43:35Z</time>
      </trkpt>
      <trkpt lat="43.99554" lon="5.90494">
        <ele>662.9663086</ele>
        <time>2011-08-23T07:43:50Z</time>
      </trkpt>
      <trkpt lat="43.99557" lon="5.90496">
        <ele>662.9663086</ele>
        <time>2011-08-23T07:43:53Z</time>
      </trkpt>
      <trkpt lat="43.99566" lon="5.90514">
        <ele>662.9663086</ele>
        <time>2011-08-23T07:44:06Z</time>
      </trkpt>
      <trkpt lat="43.99573" lon="5.90523">
        <ele>662.9663086</ele>
        <time>2011-08-23T07:44:13Z</time>
      </trkpt>
      <trkpt lat="43.99576" lon="5.90529">
        <ele>662.4855957</ele>
        <time>2011-08-23T07:44:17Z</time>
      </trkpt>
      <trkpt lat="43.9959" lon="5.90547">
        <ele>662.4855957</ele>
        <time>2011-08-23T07:44:32Z</time>
      </trkpt>
      <trkpt lat="43.99594" lon="5.90553">
        <ele>662.4855957</ele>
        <time>2011-08-23T07:44:37Z</time>
      </trkpt>
      <trkpt lat="43.99598" lon="5.90561">
        <ele>662.005127</ele>
        <time>2011-08-23T07:44:44Z</time>
      </trkpt>
      <trkpt lat="43.99602" lon="5.90566">
        <ele>662.005127</ele>
        <time>2011-08-23T07:44:48Z</time>
      </trkpt>
      <trkpt lat="43.99616" lon="5.90578">
        <ele>662.005127</ele>
        <time>2011-08-23T07:45:02Z</time>
      </trkpt>
      <trkpt lat="43.99633" lon="5.90586">
        <ele>662.005127</ele>
        <time>2011-08-23T07:45:15Z</time>
      </trkpt>
      <trkpt lat="43.99648" lon="5.90597">
        <ele>662.9663086</ele>
        <time>2011-08-23T07:45:30Z</time>
      </trkpt>
      <trkpt lat="43.99649" lon="5.90598">
        <ele>663.4470215</ele>
        <time>2011-08-23T07:45:31Z</time>
      </trkpt>
      <trkpt lat="43.99659" lon="5.90602">
        <ele>663.9274902</ele>
        <time>2011-08-23T07:45:43Z</time>
      </trkpt>
      <trkpt lat="43.99661" lon="5.90607">
        <ele>663.9274902</ele>
        <time>2011-08-23T07:45:56Z</time>
      </trkpt>
      <trkpt lat="43.99662" lon="5.90615">
        <ele>663.4470215</ele>
        <time>2011-08-23T07:46:01Z</time>
      </trkpt>
      <trkpt lat="43.9966" lon="5.90634">
        <ele>662.4855957</ele>
        <time>2011-08-23T07:46:12Z</time>
      </trkpt>
      <trkpt lat="43.99662" lon="5.90644">
        <ele>662.4855957</ele>
        <time>2011-08-23T07:46:28Z</time>
      </trkpt>
      <trkpt lat="43.99668" lon="5.90661">
        <ele>660.5629883</ele>
        <time>2011-08-23T07:46:46Z</time>
      </trkpt>
      <trkpt lat="43.99668" lon="5.90664">
        <ele>660.0822754</ele>
        <time>2011-08-23T07:46:48Z</time>
      </trkpt>
      <trkpt lat="43.99666" lon="5.90677">
        <ele>659.1210938</ele>
        <time>2011-08-23T07:46:55Z</time>
      </trkpt>
      <trkpt lat="43.99667" lon="5.90695">
        <ele>658.1599121</ele>
        <time>2011-08-23T07:47:06Z</time>
      </trkpt>
      <trkpt lat="43.99667" lon="5.907">
        <ele>657.1984863</ele>
        <time>2011-08-23T07:47:09Z</time>
      </trkpt>
      <trkpt lat="43.99666" lon="5.90713">
        <ele>655.2758789</ele>
        <time>2011-08-23T07:47:20Z</time>
      </trkpt>
      <trkpt lat="43.99667" lon="5.90719">
        <ele>654.795166</ele>
        <time>2011-08-23T07:47:34Z</time>
      </trkpt>
      <trkpt lat="43.99665" lon="5.90717">
        <ele>653.8339844</ele>
        <time>2011-08-23T07:48:33Z</time>
      </trkpt>
      <trkpt lat="43.99665" lon="5.90714">
        <ele>654.795166</ele>
        <time>2011-08-23T07:50:47Z</time>
      </trkpt>
      <trkpt lat="43.99668" lon="5.907">
        <ele>658.1599121</ele>
        <time>2011-08-23T07:52:38Z</time>
      </trkpt>
      <trkpt lat="43.99667" lon="5.90694">
        <ele>658.1599121</ele>
        <time>2011-08-23T07:52:41Z</time>
      </trkpt>
      <trkpt lat="43.99665" lon="5.90688">
        <ele>659.1210938</ele>
        <time>2011-08-23T07:52:46Z</time>
      </trkpt>
      <trkpt lat="43.99668" lon="5.90661">
        <ele>661.0437012</ele>
        <time>2011-08-23T07:53:02Z</time>
      </trkpt>
      <trkpt lat="43.99667" lon="5.90651">
        <ele>662.005127</ele>
        <time>2011-08-23T07:53:08Z</time>
      </trkpt>
      <trkpt lat="43.99665" lon="5.90643">
        <ele>662.9663086</ele>
        <time>2011-08-23T07:53:13Z</time>
      </trkpt>
      <trkpt lat="43.99665" lon="5.9064">
        <ele>662.9663086</ele>
        <time>2011-08-23T07:53:15Z</time>
      </trkpt>
      <trkpt lat="43.99663" lon="5.90632">
        <ele>663.4470215</ele>
        <time>2011-08-23T07:53:20Z</time>
      </trkpt>
      <trkpt lat="43.99661" lon="5.90615">
        <ele>663.9274902</ele>
        <time>2011-08-23T07:53:30Z</time>
      </trkpt>
      <trkpt lat="43.99669" lon="5.90592">
        <ele>665.3696289</ele>
        <time>2011-08-23T07:53:45Z</time>
      </trkpt>
      <trkpt lat="43.99678" lon="5.90576">
        <ele>666.3308105</ele>
        <time>2011-08-23T07:53:58Z</time>
      </trkpt>
      <trkpt lat="43.99679" lon="5.90573">
        <ele>666.8115234</ele>
        <time>2011-08-23T07:54:00Z</time>
      </trkpt>
      <trkpt lat="43.99684" lon="5.90563">
        <ele>667.2922363</ele>
        <time>2011-08-23T07:54:07Z</time>
      </trkpt>
      <trkpt lat="43.9969" lon="5.90546">
        <ele>668.2536621</ele>
        <time>2011-08-23T07:54:18Z</time>
      </trkpt>
      <trkpt lat="43.99696" lon="5.90546">
        <ele>668.734375</ele>
        <time>2011-08-23T07:54:34Z</time>
      </trkpt>
      <trkpt lat="43.99696" lon="5.90543">
        <ele>669.2150879</ele>
        <time>2011-08-23T07:54:36Z</time>
      </trkpt>
      <trkpt lat="43.9971" lon="5.90532">
        <ele>670.1762695</ele>
        <time>2011-08-23T07:54:51Z</time>
      </trkpt>
      <trkpt lat="43.99721" lon="5.90527">
        <ele>671.6181641</ele>
        <time>2011-08-23T07:55:00Z</time>
      </trkpt>
      <trkpt lat="43.99739" lon="5.90524">
        <ele>672.5795898</ele>
        <time>2011-08-23T07:55:14Z</time>
      </trkpt>
      <trkpt lat="43.99749" lon="5.90522">
        <ele>673.5410156</ele>
        <time>2011-08-23T07:55:21Z</time>
      </trkpt>
      <trkpt lat="43.99752" lon="5.90521">
        <ele>673.5410156</ele>
        <time>2011-08-23T07:55:23Z</time>
      </trkpt>
      <trkpt lat="43.99769" lon="5.90523">
        <ele>674.5021973</ele>
        <time>2011-08-23T07:55:38Z</time>
      </trkpt>
      <trkpt lat="43.99784" lon="5.90534">
        <ele>674.5021973</ele>
        <time>2011-08-23T07:55:52Z</time>
      </trkpt>
      <trkpt lat="43.99798" lon="5.90546">
        <ele>674.0214844</ele>
        <time>2011-08-23T07:56:05Z</time>
      </trkpt>
      <trkpt lat="43.99801" lon="5.90552">
        <ele>673.5410156</ele>
        <time>2011-08-23T07:56:09Z</time>
      </trkpt>
      <trkpt lat="43.99802" lon="5.90563">
        <ele>672.098877</ele>
        <time>2011-08-23T07:56:22Z</time>
      </trkpt>
      <trkpt lat="43.99807" lon="5.90584">
        <ele>670.6569824</ele>
        <time>2011-08-23T07:57:00Z</time>
      </trkpt>
      <trkpt lat="43.99809" lon="5.90604">
        <ele>669.6958008</ele>
        <time>2011-08-23T07:57:13Z</time>
      </trkpt>
      <trkpt lat="43.99809" lon="5.90606">
        <ele>669.2150879</ele>
        <time>2011-08-23T07:57:15Z</time>
      </trkpt>
      <trkpt lat="43.99815" lon="5.90629">
        <ele>667.2922363</ele>
        <time>2011-08-23T07:57:29Z</time>
      </trkpt>
      <trkpt lat="43.99817" lon="5.90649">
        <ele>666.3308105</ele>
        <time>2011-08-23T07:57:42Z</time>
      </trkpt>
      <trkpt lat="43.99819" lon="5.90663">
        <ele>665.8503418</ele>
        <time>2011-08-23T07:57:50Z</time>
      </trkpt>
      <trkpt lat="43.9982" lon="5.90669">
        <ele>665.8503418</ele>
        <time>2011-08-23T07:57:53Z</time>
      </trkpt>
      <trkpt lat="43.99822" lon="5.90679">
        <ele>665.8503418</ele>
        <time>2011-08-23T07:57:58Z</time>
      </trkpt>
      <trkpt lat="43.99823" lon="5.90689">
        <ele>665.8503418</ele>
        <time>2011-08-23T07:58:03Z</time>
      </trkpt>
      <trkpt lat="43.99827" lon="5.90709">
        <ele>665.8503418</ele>
        <time>2011-08-23T07:58:15Z</time>
      </trkpt>
      <trkpt lat="43.99828" lon="5.90714">
        <ele>666.3308105</ele>
        <time>2011-08-23T07:58:18Z</time>
      </trkpt>
      <trkpt lat="43.99825" lon="5.90732">
        <ele>666.3308105</ele>
        <time>2011-08-23T07:58:31Z</time>
      </trkpt>
      <trkpt lat="43.99826" lon="5.90746">
        <ele>666.3308105</ele>
        <time>2011-08-23T07:58:39Z</time>
      </trkpt>
      <trkpt lat="43.99822" lon="5.90767">
        <ele>666.3308105</ele>
        <time>2011-08-23T07:58:54Z</time>
      </trkpt>
      <trkpt lat="43.99821" lon="5.90775">
        <ele>665.8503418</ele>
        <time>2011-08-23T07:58:59Z</time>
      </trkpt>
      <trkpt lat="43.99817" lon="5.9078">
        <ele>665.8503418</ele>
        <time>2011-08-23T07:59:16Z</time>
      </trkpt>
      <trkpt lat="43.99823" lon="5.9079">
        <ele>665.8503418</ele>
        <time>2011-08-23T07:59:42Z</time>
      </trkpt>
      <trkpt lat="43.99819" lon="5.90785">
        <ele>665.8503418</ele>
        <time>2011-08-23T08:00:44Z</time>
      </trkpt>
      <trkpt lat="43.99828" lon="5.90782">
        <ele>666.8115234</ele>
        <time>2011-08-23T08:00:52Z</time>
      </trkpt>
      <trkpt lat="43.99829" lon="5.90789">
        <ele>666.3308105</ele>
        <time>2011-08-23T08:00:57Z</time>
      </trkpt>
      <trkpt lat="43.99828" lon="5.90793">
        <ele>666.3308105</ele>
        <time>2011-08-23T08:01:00Z</time>
      </trkpt>
      <trkpt lat="43.99829" lon="5.90805">
        <ele>666.3308105</ele>
        <time>2011-08-23T08:01:07Z</time>
      </trkpt>
      <trkpt lat="43.99837" lon="5.90827">
        <ele>665.3696289</ele>
        <time>2011-08-23T08:01:23Z</time>
      </trkpt>
      <trkpt lat="43.99841" lon="5.90844">
        <ele>664.888916</ele>
        <time>2011-08-23T08:01:35Z</time>
      </trkpt>
      <trkpt lat="43.99835" lon="5.90854">
        <ele>664.4082031</ele>
        <time>2011-08-23T08:01:43Z</time>
      </trkpt>
      <trkpt lat="43.99833" lon="5.90853">
        <ele>663.9274902</ele>
        <time>2011-08-23T08:01:56Z</time>
      </trkpt>
      <trkpt lat="43.99834" lon="5.90851">
        <ele>663.9274902</ele>
        <time>2011-08-23T08:02:18Z</time>
      </trkpt>
      <trkpt lat="43.99852" lon="5.90844">
        <ele>665.3696289</ele>
        <time>2011-08-23T08:02:32Z</time>
      </trkpt>
      <trkpt lat="43.99854" lon="5.90844">
        <ele>665.3696289</ele>
        <time>2011-08-23T08:02:34Z</time>
      </trkpt>
      <trkpt lat="43.99856" lon="5.90846">
        <ele>665.3696289</ele>
        <time>2011-08-23T08:02:36Z</time>
      </trkpt>
      <trkpt lat="43.99863" lon="5.90866">
        <ele>664.888916</ele>
        <time>2011-08-23T08:02:50Z</time>
      </trkpt>
      <trkpt lat="43.99874" lon="5.90888">
        <ele>665.3696289</ele>
        <time>2011-08-23T08:03:04Z</time>
      </trkpt>
      <trkpt lat="43.99876" lon="5.9089">
        <ele>665.3696289</ele>
        <time>2011-08-23T08:03:06Z</time>
      </trkpt>
      <trkpt lat="43.99883" lon="5.90904">
        <ele>665.3696289</ele>
        <time>2011-08-23T08:03:15Z</time>
      </trkpt>
      <trkpt lat="43.99888" lon="5.90914">
        <ele>665.3696289</ele>
        <time>2011-08-23T08:03:22Z</time>
      </trkpt>
      <trkpt lat="43.9989" lon="5.90921">
        <ele>665.3696289</ele>
        <time>2011-08-23T08:03:26Z</time>
      </trkpt>
      <trkpt lat="43.99893" lon="5.90924">
        <ele>665.3696289</ele>
        <time>2011-08-23T08:03:29Z</time>
      </trkpt>
      <trkpt lat="43.99895" lon="5.90928">
        <ele>665.3696289</ele>
        <time>2011-08-23T08:03:31Z</time>
      </trkpt>
      <trkpt lat="43.999" lon="5.90949">
        <ele>665.8503418</ele>
        <time>2011-08-23T08:03:42Z</time>
      </trkpt>
      <trkpt lat="43.9991" lon="5.90973">
        <ele>665.8503418</ele>
        <time>2011-08-23T08:04:00Z</time>
      </trkpt>
      <trkpt lat="43.99921" lon="5.90996">
        <ele>665.3696289</ele>
        <time>2011-08-23T08:04:15Z</time>
      </trkpt>
      <trkpt lat="43.99927" lon="5.91005">
        <ele>665.3696289</ele>
        <time>2011-08-23T08:04:28Z</time>
      </trkpt>
      <trkpt lat="43.99935" lon="5.91021">
        <ele>665.3696289</ele>
        <time>2011-08-23T08:05:02Z</time>
      </trkpt>
      <trkpt lat="43.99939" lon="5.91027">
        <ele>664.888916</ele>
        <time>2011-08-23T08:05:15Z</time>
      </trkpt>
      <trkpt lat="43.99936" lon="5.91025">
        <ele>665.3696289</ele>
        <time>2011-08-23T08:07:09Z</time>
      </trkpt>
      <trkpt lat="43.99932" lon="5.91019">
        <ele>665.3696289</ele>
        <time>2011-08-23T08:07:13Z</time>
      </trkpt>
      <trkpt lat="43.99931" lon="5.91015">
        <ele>665.8503418</ele>
        <time>2011-08-23T08:07:16Z</time>
      </trkpt>
      <trkpt lat="43.99926" lon="5.91">
        <ele>665.8503418</ele>
        <time>2011-08-23T08:07:24Z</time>
      </trkpt>
      <trkpt lat="43.99923" lon="5.90997">
        <ele>665.8503418</ele>
        <time>2011-08-23T08:07:40Z</time>
      </trkpt>
      <trkpt lat="43.99916" lon="5.90978">
        <ele>665.8503418</ele>
        <time>2011-08-23T08:08:16Z</time>
      </trkpt>
      <trkpt lat="43.99904" lon="5.90951">
        <ele>665.3696289</ele>
        <time>2011-08-23T08:08:32Z</time>
      </trkpt>
      <trkpt lat="43.99898" lon="5.90935">
        <ele>665.8503418</ele>
        <time>2011-08-23T08:08:41Z</time>
      </trkpt>
      <trkpt lat="43.99893" lon="5.90923">
        <ele>665.3696289</ele>
        <time>2011-08-23T08:08:48Z</time>
      </trkpt>
      <trkpt lat="43.99887" lon="5.90913">
        <ele>665.3696289</ele>
        <time>2011-08-23T08:08:54Z</time>
      </trkpt>
      <trkpt lat="43.99876" lon="5.90888">
        <ele>665.3696289</ele>
        <time>2011-08-23T08:09:09Z</time>
      </trkpt>
      <trkpt lat="43.99867" lon="5.90864">
        <ele>664.888916</ele>
        <time>2011-08-23T08:09:25Z</time>
      </trkpt>
      <trkpt lat="43.99856" lon="5.90841">
        <ele>664.888916</ele>
        <time>2011-08-23T08:09:40Z</time>
      </trkpt>
      <trkpt lat="43.99839" lon="5.90827">
        <ele>664.888916</ele>
        <time>2011-08-23T08:09:55Z</time>
      </trkpt>
      <trkpt lat="43.99831" lon="5.90806">
        <ele>665.3696289</ele>
        <time>2011-08-23T08:10:09Z</time>
      </trkpt>
      <trkpt lat="43.9983" lon="5.90781">
        <ele>665.8503418</ele>
        <time>2011-08-23T08:10:23Z</time>
      </trkpt>
      <trkpt lat="43.99832" lon="5.90752">
        <ele>666.8115234</ele>
        <time>2011-08-23T08:10:38Z</time>
      </trkpt>
      <trkpt lat="43.99838" lon="5.90729">
        <ele>666.8115234</ele>
        <time>2011-08-23T08:10:52Z</time>
      </trkpt>
      <trkpt lat="43.99844" lon="5.90704">
        <ele>667.2922363</ele>
        <time>2011-08-23T08:11:07Z</time>
      </trkpt>
      <trkpt lat="43.99844" lon="5.90697">
        <ele>667.2922363</ele>
        <time>2011-08-23T08:11:11Z</time>
      </trkpt>
      <trkpt lat="43.9984" lon="5.90672">
        <ele>666.8115234</ele>
        <time>2011-08-23T08:11:25Z</time>
      </trkpt>
      <trkpt lat="43.99837" lon="5.90646">
        <ele>667.7727051</ele>
        <time>2011-08-23T08:11:39Z</time>
      </trkpt>
      <trkpt lat="43.99837" lon="5.90641">
        <ele>668.2536621</ele>
        <time>2011-08-23T08:11:43Z</time>
      </trkpt>
      <trkpt lat="43.99838" lon="5.90631">
        <ele>668.2536621</ele>
        <time>2011-08-23T08:11:49Z</time>
      </trkpt>
      <trkpt lat="43.99837" lon="5.90603">
        <ele>669.2150879</ele>
        <time>2011-08-23T08:12:04Z</time>
      </trkpt>
      <trkpt lat="43.99837" lon="5.90578">
        <ele>670.1762695</ele>
        <time>2011-08-23T08:12:18Z</time>
      </trkpt>
      <trkpt lat="43.99835" lon="5.90566">
        <ele>671.1376953</ele>
        <time>2011-08-23T08:12:26Z</time>
      </trkpt>
      <trkpt lat="43.9985" lon="5.90561">
        <ele>672.098877</ele>
        <time>2011-08-23T08:12:38Z</time>
      </trkpt>
      <trkpt lat="43.99868" lon="5.90568">
        <ele>672.098877</ele>
        <time>2011-08-23T08:12:50Z</time>
      </trkpt>
      <trkpt lat="43.99887" lon="5.90556">
        <ele>674.0214844</ele>
        <time>2011-08-23T08:13:04Z</time>
      </trkpt>
      <trkpt lat="43.99905" lon="5.90547">
        <ele>674.9829102</ele>
        <time>2011-08-23T08:13:20Z</time>
      </trkpt>
      <trkpt lat="43.99909" lon="5.90544">
        <ele>675.9440918</ele>
        <time>2011-08-23T08:13:24Z</time>
      </trkpt>
      <trkpt lat="43.99919" lon="5.9054">
        <ele>676.4248047</ele>
        <time>2011-08-23T08:13:40Z</time>
      </trkpt>
      <trkpt lat="43.99936" lon="5.90535">
        <ele>678.3474121</ele>
        <time>2011-08-23T08:13:54Z</time>
      </trkpt>
      <trkpt lat="43.99951" lon="5.90533">
        <ele>679.7893066</ele>
        <time>2011-08-23T08:14:08Z</time>
      </trkpt>
      <trkpt lat="43.99968" lon="5.90524">
        <ele>681.7119141</ele>
        <time>2011-08-23T08:14:22Z</time>
      </trkpt>
      <trkpt lat="43.99986" lon="5.9052">
        <ele>682.6733398</ele>
        <time>2011-08-23T08:14:36Z</time>
      </trkpt>
      <trkpt lat="43.99989" lon="5.90521">
        <ele>683.1538086</ele>
        <time>2011-08-23T08:14:39Z</time>
      </trkpt>
      <trkpt lat="44.00005" lon="5.90523">
        <ele>685.557373</ele>
        <time>2011-08-23T08:14:54Z</time>
      </trkpt>
      <trkpt lat="44.0001" lon="5.90528">
        <ele>685.557373</ele>
        <time>2011-08-23T08:14:59Z</time>
      </trkpt>
      <trkpt lat="44.00015" lon="5.9053">
        <ele>686.0380859</ele>
        <time>2011-08-23T08:15:03Z</time>
      </trkpt>
      <trkpt lat="44.00024" lon="5.90539">
        <ele>686.9992676</ele>
        <time>2011-08-23T08:15:12Z</time>
      </trkpt>
      <trkpt lat="44.0004" lon="5.90549">
        <ele>687.4799805</ele>
        <time>2011-08-23T08:15:26Z</time>
      </trkpt>
      <trkpt lat="44.00051" lon="5.90556">
        <ele>688.9221191</ele>
        <time>2011-08-23T08:15:38Z</time>
      </trkpt>
      <trkpt lat="44.00061" lon="5.90576">
        <ele>688.9221191</ele>
        <time>2011-08-23T08:15:53Z</time>
      </trkpt>
      <trkpt lat="44.00071" lon="5.90593">
        <ele>688.4414063</ele>
        <time>2011-08-23T08:16:06Z</time>
      </trkpt>
      <trkpt lat="44.00075" lon="5.90598">
        <ele>688.4414063</ele>
        <time>2011-08-23T08:16:10Z</time>
      </trkpt>
      <trkpt lat="44.00092" lon="5.90609">
        <ele>688.9221191</ele>
        <time>2011-08-23T08:16:24Z</time>
      </trkpt>
      <trkpt lat="44.00104" lon="5.90621">
        <ele>689.4025879</ele>
        <time>2011-08-23T08:16:35Z</time>
      </trkpt>
      <trkpt lat="44.0012" lon="5.90635">
        <ele>689.8833008</ele>
        <time>2011-08-23T08:16:50Z</time>
      </trkpt>
      <trkpt lat="44.00135" lon="5.90645">
        <ele>690.3640137</ele>
        <time>2011-08-23T08:17:04Z</time>
      </trkpt>
      <trkpt lat="44.00149" lon="5.90656">
        <ele>691.3251953</ele>
        <time>2011-08-23T08:17:17Z</time>
      </trkpt>
      <trkpt lat="44.00161" lon="5.90669">
        <ele>691.3251953</ele>
        <time>2011-08-23T08:17:30Z</time>
      </trkpt>
      <trkpt lat="44.00174" lon="5.90684">
        <ele>691.8059082</ele>
        <time>2011-08-23T08:17:44Z</time>
      </trkpt>
      <trkpt lat="44.0018" lon="5.90694">
        <ele>692.767334</ele>
        <time>2011-08-23T08:17:53Z</time>
      </trkpt>
      <trkpt lat="44.00196" lon="5.90705">
        <ele>693.7285156</ele>
        <time>2011-08-23T08:18:08Z</time>
      </trkpt>
      <trkpt lat="44.00204" lon="5.90707">
        <ele>694.2092285</ele>
        <time>2011-08-23T08:18:15Z</time>
      </trkpt>
      <trkpt lat="44.00219" lon="5.90697">
        <ele>695.651123</ele>
        <time>2011-08-23T08:18:29Z</time>
      </trkpt>
      <trkpt lat="44.00233" lon="5.90698">
        <ele>697.0930176</ele>
        <time>2011-08-23T08:18:44Z</time>
      </trkpt>
      <trkpt lat="44.0024" lon="5.90698">
        <ele>697.5737305</ele>
        <time>2011-08-23T08:18:50Z</time>
      </trkpt>
      <trkpt lat="44.00259" lon="5.90708">
        <ele>698.5349121</ele>
        <time>2011-08-23T08:19:07Z</time>
      </trkpt>
      <trkpt lat="44.00269" lon="5.90709">
        <ele>698.5349121</ele>
        <time>2011-08-23T08:19:22Z</time>
      </trkpt>
      <trkpt lat="44.0027" lon="5.9071">
        <ele>698.5349121</ele>
        <time>2011-08-23T08:19:23Z</time>
      </trkpt>
      <trkpt lat="44.00283" lon="5.90716">
        <ele>699.4963379</ele>
        <time>2011-08-23T08:19:33Z</time>
      </trkpt>
      <trkpt lat="44.0029" lon="5.90728">
        <ele>699.4963379</ele>
        <time>2011-08-23T08:19:46Z</time>
      </trkpt>
      <trkpt lat="44.00296" lon="5.90735">
        <ele>699.015625</ele>
        <time>2011-08-23T08:19:52Z</time>
      </trkpt>
      <trkpt lat="44.00303" lon="5.9074">
        <ele>699.015625</ele>
        <time>2011-08-23T08:19:57Z</time>
      </trkpt>
      <trkpt lat="44.00321" lon="5.90752">
        <ele>699.4963379</ele>
        <time>2011-08-23T08:20:13Z</time>
      </trkpt>
      <trkpt lat="44.00324" lon="5.90754">
        <ele>699.4963379</ele>
        <time>2011-08-23T08:20:16Z</time>
      </trkpt>
      <trkpt lat="44.00337" lon="5.90768">
        <ele>700.4580078</ele>
        <time>2011-08-23T08:20:32Z</time>
      </trkpt>
      <trkpt lat="44.00348" lon="5.90774">
        <ele>699.9770508</ele>
        <time>2011-08-23T08:20:45Z</time>
      </trkpt>
      <trkpt lat="44.0035" lon="5.90778">
        <ele>699.9770508</ele>
        <time>2011-08-23T08:20:49Z</time>
      </trkpt>
      <trkpt lat="44.00351" lon="5.90787">
        <ele>702.3803711</ele>
        <time>2011-08-23T08:21:01Z</time>
      </trkpt>
      <trkpt lat="44.00352" lon="5.90793">
        <ele>703.3417969</ele>
        <time>2011-08-23T08:21:15Z</time>
      </trkpt>
      <trkpt lat="44.00362" lon="5.90804">
        <ele>703.3417969</ele>
        <time>2011-08-23T08:21:34Z</time>
      </trkpt>
      <trkpt lat="44.00369" lon="5.90802">
        <ele>703.8225098</ele>
        <time>2011-08-23T08:21:49Z</time>
      </trkpt>
      <trkpt lat="44.00369" lon="5.9081">
        <ele>702.861084</ele>
        <time>2011-08-23T08:22:25Z</time>
      </trkpt>
      <trkpt lat="44.00372" lon="5.90813">
        <ele>702.861084</ele>
        <time>2011-08-23T08:22:30Z</time>
      </trkpt>
      <trkpt lat="44.00379" lon="5.90823">
        <ele>702.861084</ele>
        <time>2011-08-23T08:22:38Z</time>
      </trkpt>
      <trkpt lat="44.00384" lon="5.90832">
        <ele>702.861084</ele>
        <time>2011-08-23T08:22:46Z</time>
      </trkpt>
      <trkpt lat="44.00393" lon="5.90834">
        <ele>703.8225098</ele>
        <time>2011-08-23T08:23:00Z</time>
      </trkpt>
      <trkpt lat="44.00405" lon="5.90843">
        <ele>703.3417969</ele>
        <time>2011-08-23T08:23:14Z</time>
      </trkpt>
      <trkpt lat="44.00412" lon="5.90854">
        <ele>703.8225098</ele>
        <time>2011-08-23T08:23:24Z</time>
      </trkpt>
      <trkpt lat="44.00421" lon="5.90851">
        <ele>704.3032227</ele>
        <time>2011-08-23T08:23:33Z</time>
      </trkpt>
      <trkpt lat="44.00424" lon="5.90856">
        <ele>704.7836914</ele>
        <time>2011-08-23T08:23:45Z</time>
      </trkpt>
      <trkpt lat="44.00432" lon="5.9086">
        <ele>705.7451172</ele>
        <time>2011-08-23T08:24:12Z</time>
      </trkpt>
      <trkpt lat="44.00446" lon="5.90868">
        <ele>706.7062988</ele>
        <time>2011-08-23T08:24:26Z</time>
      </trkpt>
      <trkpt lat="44.00449" lon="5.9087">
        <ele>706.7062988</ele>
        <time>2011-08-23T08:24:29Z</time>
      </trkpt>
      <trkpt lat="44.00451" lon="5.90873">
        <ele>707.1870117</ele>
        <time>2011-08-23T08:24:31Z</time>
      </trkpt>
      <trkpt lat="44.00456" lon="5.90879">
        <ele>707.6677246</ele>
        <time>2011-08-23T08:24:38Z</time>
      </trkpt>
      <trkpt lat="44.00461" lon="5.90884">
        <ele>707.6677246</ele>
        <time>2011-08-23T08:24:43Z</time>
      </trkpt>
      <trkpt lat="44.00472" lon="5.90883">
        <ele>708.1484375</ele>
        <time>2011-08-23T08:24:57Z</time>
      </trkpt>
      <trkpt lat="44.0047" lon="5.90884">
        <ele>708.1484375</ele>
        <time>2011-08-23T08:25:12Z</time>
      </trkpt>
      <trkpt lat="44.00476" lon="5.90884">
        <ele>708.1484375</ele>
        <time>2011-08-23T08:25:24Z</time>
      </trkpt>
      <trkpt lat="44.00476" lon="5.90893">
        <ele>708.6289063</ele>
        <time>2011-08-23T08:25:49Z</time>
      </trkpt>
      <trkpt lat="44.0048" lon="5.90888">
        <ele>708.6289063</ele>
        <time>2011-08-23T08:26:00Z</time>
      </trkpt>
      <trkpt lat="44.00477" lon="5.90891">
        <ele>708.1484375</ele>
        <time>2011-08-23T08:26:33Z</time>
      </trkpt>
      <trkpt lat="44.00471" lon="5.90923">
        <ele>707.6677246</ele>
        <time>2011-08-23T08:26:49Z</time>
      </trkpt>
      <trkpt lat="44.00465" lon="5.90947">
        <ele>705.7451172</ele>
        <time>2011-08-23T08:27:04Z</time>
      </trkpt>
      <trkpt lat="44.00464" lon="5.90948">
        <ele>705.7451172</ele>
        <time>2011-08-23T08:27:05Z</time>
      </trkpt>
      <trkpt lat="44.00466" lon="5.9096">
        <ele>705.7451172</ele>
        <time>2011-08-23T08:27:12Z</time>
      </trkpt>
      <trkpt lat="44.00466" lon="5.90965">
        <ele>706.2255859</ele>
        <time>2011-08-23T08:27:31Z</time>
      </trkpt>
      <trkpt lat="44.00467" lon="5.90967">
        <ele>706.7062988</ele>
        <time>2011-08-23T08:28:21Z</time>
      </trkpt>
      <trkpt lat="44.00471" lon="5.9098">
        <ele>707.6677246</ele>
        <time>2011-08-23T08:28:35Z</time>
      </trkpt>
      <trkpt lat="44.00474" lon="5.90981">
        <ele>707.6677246</ele>
        <time>2011-08-23T08:29:01Z</time>
      </trkpt>
      <trkpt lat="44.00469" lon="5.90979">
        <ele>707.6677246</ele>
        <time>2011-08-23T08:29:48Z</time>
      </trkpt>
      <trkpt lat="44.00464" lon="5.9096">
        <ele>706.2255859</ele>
        <time>2011-08-23T08:30:00Z</time>
      </trkpt>
      <trkpt lat="44.0046" lon="5.90957">
        <ele>704.7836914</ele>
        <time>2011-08-23T08:30:11Z</time>
      </trkpt>
      <trkpt lat="44.00458" lon="5.90978">
        <ele>703.3417969</ele>
        <time>2011-08-23T08:30:23Z</time>
      </trkpt>
      <trkpt lat="44.00458" lon="5.90992">
        <ele>702.3803711</ele>
        <time>2011-08-23T08:30:31Z</time>
      </trkpt>
      <trkpt lat="44.00464" lon="5.91016">
        <ele>702.861084</ele>
        <time>2011-08-23T08:30:46Z</time>
      </trkpt>
      <trkpt lat="44.00475" lon="5.91021">
        <ele>703.8225098</ele>
        <time>2011-08-23T08:31:12Z</time>
      </trkpt>
      <trkpt lat="44.0048" lon="5.91031">
        <ele>704.3032227</ele>
        <time>2011-08-23T08:31:28Z</time>
      </trkpt>
      <trkpt lat="44.00482" lon="5.91032">
        <ele>704.3032227</ele>
        <time>2011-08-23T08:32:27Z</time>
      </trkpt>
      <trkpt lat="44.00489" lon="5.91032">
        <ele>705.7451172</ele>
        <time>2011-08-23T08:32:41Z</time>
      </trkpt>
      <trkpt lat="44.00496" lon="5.9104">
        <ele>706.2255859</ele>
        <time>2011-08-23T08:32:59Z</time>
      </trkpt>
      <trkpt lat="44.00504" lon="5.91047">
        <ele>706.7062988</ele>
        <time>2011-08-23T08:33:14Z</time>
      </trkpt>
      <trkpt lat="44.00515" lon="5.91057">
        <ele>706.2255859</ele>
        <time>2011-08-23T08:33:28Z</time>
      </trkpt>
      <trkpt lat="44.00521" lon="5.91066">
        <ele>707.1870117</ele>
        <time>2011-08-23T08:33:36Z</time>
      </trkpt>
      <trkpt lat="44.00523" lon="5.91069">
        <ele>707.6677246</ele>
        <time>2011-08-23T08:33:39Z</time>
      </trkpt>
      <trkpt lat="44.00537" lon="5.91077">
        <ele>708.1484375</ele>
        <time>2011-08-23T08:33:54Z</time>
      </trkpt>
      <trkpt lat="44.00542" lon="5.91078">
        <ele>709.1096191</ele>
        <time>2011-08-23T08:33:59Z</time>
      </trkpt>
      <trkpt lat="44.00552" lon="5.9108">
        <ele>710.0708008</ele>
        <time>2011-08-23T08:34:16Z</time>
      </trkpt>
      <trkpt lat="44.00549" lon="5.91078">
        <ele>709.590332</ele>
        <time>2011-08-23T08:36:55Z</time>
      </trkpt>
      <trkpt lat="44.00536" lon="5.91071">
        <ele>708.6289063</ele>
        <time>2011-08-23T08:37:10Z</time>
      </trkpt>
      <trkpt lat="44.00525" lon="5.91061">
        <ele>708.1484375</ele>
        <time>2011-08-23T08:37:23Z</time>
      </trkpt>
      <trkpt lat="44.00514" lon="5.9105">
        <ele>707.1870117</ele>
        <time>2011-08-23T08:37:36Z</time>
      </trkpt>
      <trkpt lat="44.00505" lon="5.91043">
        <ele>707.1870117</ele>
        <time>2011-08-23T08:37:48Z</time>
      </trkpt>
      <trkpt lat="44.00503" lon="5.91043">
        <ele>706.7062988</ele>
        <time>2011-08-23T08:37:50Z</time>
      </trkpt>
      <trkpt lat="44.00491" lon="5.91034">
        <ele>706.2255859</ele>
        <time>2011-08-23T08:38:03Z</time>
      </trkpt>
      <trkpt lat="44.00487" lon="5.91034">
        <ele>705.2644043</ele>
        <time>2011-08-23T08:38:09Z</time>
      </trkpt>
      <trkpt lat="44.00481" lon="5.91027">
        <ele>704.7836914</ele>
        <time>2011-08-23T08:38:16Z</time>
      </trkpt>
      <trkpt lat="44.00477" lon="5.91022">
        <ele>704.7836914</ele>
        <time>2011-08-23T08:38:20Z</time>
      </trkpt>
      <trkpt lat="44.00475" lon="5.9102">
        <ele>704.7836914</ele>
        <time>2011-08-23T08:38:22Z</time>
      </trkpt>
      <trkpt lat="44.00463" lon="5.91011">
        <ele>703.8225098</ele>
        <time>2011-08-23T08:38:35Z</time>
      </trkpt>
      <trkpt lat="44.00455" lon="5.90992">
        <ele>703.8225098</ele>
        <time>2011-08-23T08:38:48Z</time>
      </trkpt>
      <trkpt lat="44.00451" lon="5.90988">
        <ele>703.3417969</ele>
        <time>2011-08-23T08:38:52Z</time>
      </trkpt>
      <trkpt lat="44.00443" lon="5.90983">
        <ele>701.8999023</ele>
        <time>2011-08-23T08:38:58Z</time>
      </trkpt>
      <trkpt lat="44.00437" lon="5.90981">
        <ele>701.8999023</ele>
        <time>2011-08-23T08:39:03Z</time>
      </trkpt>
      <trkpt lat="44.00431" lon="5.90965">
        <ele>701.4191895</ele>
        <time>2011-08-23T08:39:13Z</time>
      </trkpt>
      <trkpt lat="44.00423" lon="5.90964">
        <ele>700.9384766</ele>
        <time>2011-08-23T08:39:18Z</time>
      </trkpt>
      <trkpt lat="44.00414" lon="5.90961">
        <ele>700.9384766</ele>
        <time>2011-08-23T08:39:27Z</time>
      </trkpt>
      <trkpt lat="44.00413" lon="5.90955">
        <ele>700.9384766</ele>
        <time>2011-08-23T08:39:31Z</time>
      </trkpt>
      <trkpt lat="44.00413" lon="5.90952">
        <ele>701.4191895</ele>
        <time>2011-08-23T08:39:33Z</time>
      </trkpt>
      <trkpt lat="44.00414" lon="5.90949">
        <ele>701.4191895</ele>
        <time>2011-08-23T08:39:35Z</time>
      </trkpt>
      <trkpt lat="44.00414" lon="5.90939">
        <ele>701.4191895</ele>
        <time>2011-08-23T08:39:40Z</time>
      </trkpt>
      <trkpt lat="44.0041" lon="5.90911">
        <ele>702.3803711</ele>
        <time>2011-08-23T08:39:56Z</time>
      </trkpt>
      <trkpt lat="44.00404" lon="5.90889">
        <ele>702.861084</ele>
        <time>2011-08-23T08:40:09Z</time>
      </trkpt>
      <trkpt lat="44.00398" lon="5.9087">
        <ele>703.3417969</ele>
        <time>2011-08-23T08:40:23Z</time>
      </trkpt>
      <trkpt lat="44.00395" lon="5.90842">
        <ele>703.8225098</ele>
        <time>2011-08-23T08:40:38Z</time>
      </trkpt>
      <trkpt lat="44.00395" lon="5.90831">
        <ele>704.7836914</ele>
        <time>2011-08-23T08:40:52Z</time>
      </trkpt>
      <trkpt lat="44.00394" lon="5.90832">
        <ele>704.7836914</ele>
        <time>2011-08-23T08:40:53Z</time>
      </trkpt>
      <trkpt lat="44.00391" lon="5.90831">
        <ele>704.3032227</ele>
        <time>2011-08-23T08:40:55Z</time>
      </trkpt>
      <trkpt lat="44.00376" lon="5.90815">
        <ele>704.3032227</ele>
        <time>2011-08-23T08:41:09Z</time>
      </trkpt>
      <trkpt lat="44.00374" lon="5.90814">
        <ele>704.3032227</ele>
        <time>2011-08-23T08:41:11Z</time>
      </trkpt>
      <trkpt lat="44.00357" lon="5.90799">
        <ele>704.3032227</ele>
        <time>2011-08-23T08:41:26Z</time>
      </trkpt>
      <trkpt lat="44.00355" lon="5.9079">
        <ele>702.3803711</ele>
        <time>2011-08-23T08:41:40Z</time>
      </trkpt>
      <trkpt lat="44.00351" lon="5.90777">
        <ele>700.4580078</ele>
        <time>2011-08-23T08:41:55Z</time>
      </trkpt>
      <trkpt lat="44.00337" lon="5.90763">
        <ele>700.9384766</ele>
        <time>2011-08-23T08:42:11Z</time>
      </trkpt>
      <trkpt lat="44.00334" lon="5.9076">
        <ele>700.4580078</ele>
        <time>2011-08-23T08:42:14Z</time>
      </trkpt>
      <trkpt lat="44.00325" lon="5.90755">
        <ele>700.4580078</ele>
        <time>2011-08-23T08:42:22Z</time>
      </trkpt>
      <trkpt lat="44.00318" lon="5.90748">
        <ele>700.4580078</ele>
        <time>2011-08-23T08:42:28Z</time>
      </trkpt>
      <trkpt lat="44.00296" lon="5.90732">
        <ele>699.9770508</ele>
        <time>2011-08-23T08:42:46Z</time>
      </trkpt>
      <trkpt lat="44.00285" lon="5.90717">
        <ele>700.4580078</ele>
        <time>2011-08-23T08:43:00Z</time>
      </trkpt>
      <trkpt lat="44.0027" lon="5.90708">
        <ele>699.4963379</ele>
        <time>2011-08-23T08:43:14Z</time>
      </trkpt>
      <trkpt lat="44.00261" lon="5.90707">
        <ele>699.4963379</ele>
        <time>2011-08-23T08:43:23Z</time>
      </trkpt>
      <trkpt lat="44.00254" lon="5.90705">
        <ele>699.015625</ele>
        <time>2011-08-23T08:43:39Z</time>
      </trkpt>
      <trkpt lat="44.00255" lon="5.90706">
        <ele>699.015625</ele>
        <time>2011-08-23T08:44:01Z</time>
      </trkpt>
      <trkpt lat="44.00271" lon="5.90706">
        <ele>698.5349121</ele>
        <time>2011-08-23T08:44:14Z</time>
      </trkpt>
      <trkpt lat="44.0029" lon="5.90713">
        <ele>695.651123</ele>
        <time>2011-08-23T08:44:28Z</time>
      </trkpt>
      <trkpt lat="44.00291" lon="5.90713">
        <ele>695.651123</ele>
        <time>2011-08-23T08:44:29Z</time>
      </trkpt>
      <trkpt lat="44.00311" lon="5.9072">
        <ele>692.2866211</ele>
        <time>2011-08-23T08:44:45Z</time>
      </trkpt>
      <trkpt lat="44.00315" lon="5.90717">
        <ele>691.8059082</ele>
        <time>2011-08-23T08:44:48Z</time>
      </trkpt>
      <trkpt lat="44.00327" lon="5.90721">
        <ele>688.4414063</ele>
        <time>2011-08-23T08:45:01Z</time>
      </trkpt>
      <trkpt lat="44.00343" lon="5.90723">
        <ele>686.0380859</ele>
        <time>2011-08-23T08:45:14Z</time>
      </trkpt>
      <trkpt lat="44.00359" lon="5.90734">
        <ele>683.6345215</ele>
        <time>2011-08-23T08:45:27Z</time>
      </trkpt>
      <trkpt lat="44.00379" lon="5.90743">
        <ele>681.7119141</ele>
        <time>2011-08-23T08:45:42Z</time>
      </trkpt>
      <trkpt lat="44.00397" lon="5.90754">
        <ele>680.7507324</ele>
        <time>2011-08-23T08:45:56Z</time>
      </trkpt>
      <trkpt lat="44.00415" lon="5.90763">
        <ele>678.828125</ele>
        <time>2011-08-23T08:46:11Z</time>
      </trkpt>
      <trkpt lat="44.00433" lon="5.90769">
        <ele>677.3862305</ele>
        <time>2011-08-23T08:46:26Z</time>
      </trkpt>
      <trkpt lat="44.00454" lon="5.90769">
        <ele>674.5021973</ele>
        <time>2011-08-23T08:46:41Z</time>
      </trkpt>
      <trkpt lat="44.00472" lon="5.90776">
        <ele>672.098877</ele>
        <time>2011-08-23T08:46:57Z</time>
      </trkpt>
      <trkpt lat="44.00479" lon="5.9078">
        <ele>671.1376953</ele>
        <time>2011-08-23T08:47:03Z</time>
      </trkpt>
      <trkpt lat="44.00497" lon="5.90784">
        <ele>669.2150879</ele>
        <time>2011-08-23T08:47:17Z</time>
      </trkpt>
      <trkpt lat="44.00515" lon="5.90787">
        <ele>666.8115234</ele>
        <time>2011-08-23T08:47:31Z</time>
      </trkpt>
      <trkpt lat="44.00525" lon="5.90787">
        <ele>664.888916</ele>
        <time>2011-08-23T08:47:45Z</time>
      </trkpt>
      <trkpt lat="44.0054" lon="5.90787">
        <ele>662.4855957</ele>
        <time>2011-08-23T08:54:45Z</time>
      </trkpt>
      <trkpt lat="44.00561" lon="5.90786">
        <ele>659.1210938</ele>
        <time>2011-08-23T08:54:59Z</time>
      </trkpt>
      <trkpt lat="44.00581" lon="5.90792">
        <ele>656.2370605</ele>
        <time>2011-08-23T08:55:14Z</time>
      </trkpt>
      <trkpt lat="44.00604" lon="5.90801">
        <ele>653.8339844</ele>
        <time>2011-08-23T08:55:31Z</time>
      </trkpt>
      <trkpt lat="44.00621" lon="5.9081">
        <ele>651.4304199</ele>
        <time>2011-08-23T08:55:44Z</time>
      </trkpt>
      <trkpt lat="44.00642" lon="5.90817">
        <ele>648.5463867</ele>
        <time>2011-08-23T08:56:00Z</time>
      </trkpt>
      <trkpt lat="44.00663" lon="5.90822">
        <ele>645.1818848</ele>
        <time>2011-08-23T08:56:16Z</time>
      </trkpt>
      <trkpt lat="44.00681" lon="5.90831">
        <ele>642.7788086</ele>
        <time>2011-08-23T08:56:30Z</time>
      </trkpt>
      <trkpt lat="44.00698" lon="5.90846">
        <ele>640.3754883</ele>
        <time>2011-08-23T08:56:45Z</time>
      </trkpt>
      <trkpt lat="44.00704" lon="5.90847">
        <ele>639.4140625</ele>
        <time>2011-08-23T08:56:49Z</time>
      </trkpt>
      <trkpt lat="44.00719" lon="5.90839">
        <ele>637.0107422</ele>
        <time>2011-08-23T08:57:03Z</time>
      </trkpt>
      <trkpt lat="44.00717" lon="5.90855">
        <ele>636.0495605</ele>
        <time>2011-08-23T08:57:12Z</time>
      </trkpt>
      <trkpt lat="44.00713" lon="5.90883">
        <ele>635.0881348</ele>
        <time>2011-08-23T08:57:26Z</time>
      </trkpt>
      <trkpt lat="44.00713" lon="5.90892">
        <ele>635.0881348</ele>
        <time>2011-08-23T08:57:30Z</time>
      </trkpt>
      <trkpt lat="44.00713" lon="5.90899">
        <ele>634.6074219</ele>
        <time>2011-08-23T08:57:34Z</time>
      </trkpt>
      <trkpt lat="44.00714" lon="5.90907">
        <ele>634.6074219</ele>
        <time>2011-08-23T08:57:38Z</time>
      </trkpt>
      <trkpt lat="44.00714" lon="5.9092">
        <ele>634.126709</ele>
        <time>2011-08-23T08:57:45Z</time>
      </trkpt>
      <trkpt lat="44.00717" lon="5.90931">
        <ele>633.1652832</ele>
        <time>2011-08-23T08:57:51Z</time>
      </trkpt>
      <trkpt lat="44.00724" lon="5.90951">
        <ele>631.7233887</ele>
        <time>2011-08-23T08:58:04Z</time>
      </trkpt>
      <trkpt lat="44.00736" lon="5.90974">
        <ele>629.8007813</ele>
        <time>2011-08-23T08:58:19Z</time>
      </trkpt>
      <trkpt lat="44.00738" lon="5.90978">
        <ele>629.8007813</ele>
        <time>2011-08-23T08:58:21Z</time>
      </trkpt>
      <trkpt lat="44.00741" lon="5.90986">
        <ele>628.8395996</ele>
        <time>2011-08-23T08:58:26Z</time>
      </trkpt>
      <trkpt lat="44.00747" lon="5.90994">
        <ele>628.3588867</ele>
        <time>2011-08-23T08:58:32Z</time>
      </trkpt>
      <trkpt lat="44.00758" lon="5.91021">
        <ele>626.4362793</ele>
        <time>2011-08-23T08:58:49Z</time>
      </trkpt>
      <trkpt lat="44.00765" lon="5.91043">
        <ele>624.9943848</ele>
        <time>2011-08-23T08:59:01Z</time>
      </trkpt>
      <trkpt lat="44.00768" lon="5.91053">
        <ele>624.032959</ele>
        <time>2011-08-23T08:59:07Z</time>
      </trkpt>
      <trkpt lat="44.00778" lon="5.91082">
        <ele>621.6296387</ele>
        <time>2011-08-23T08:59:24Z</time>
      </trkpt>
      <trkpt lat="44.00783" lon="5.91107">
        <ele>620.1877441</ele>
        <time>2011-08-23T08:59:39Z</time>
      </trkpt>
      <trkpt lat="44.00782" lon="5.91135">
        <ele>618.7456055</ele>
        <time>2011-08-23T08:59:53Z</time>
      </trkpt>
      <trkpt lat="44.00782" lon="5.91138">
        <ele>618.7456055</ele>
        <time>2011-08-23T08:59:55Z</time>
      </trkpt>
      <trkpt lat="44.0078" lon="5.91146">
        <ele>618.7456055</ele>
        <time>2011-08-23T08:59:58Z</time>
      </trkpt>
      <trkpt lat="44.00779" lon="5.91166">
        <ele>617.7841797</ele>
        <time>2011-08-23T09:00:10Z</time>
      </trkpt>
      <trkpt lat="44.00779" lon="5.91176">
        <ele>617.3037109</ele>
        <time>2011-08-23T09:00:16Z</time>
      </trkpt>
      <trkpt lat="44.00776" lon="5.91209">
        <ele>615.8618164</ele>
        <time>2011-08-23T09:00:33Z</time>
      </trkpt>
      <trkpt lat="44.00768" lon="5.91238">
        <ele>614.4196777</ele>
        <time>2011-08-23T09:00:49Z</time>
      </trkpt>
      <trkpt lat="44.00756" lon="5.91248">
        <ele>612.4970703</ele>
        <time>2011-08-23T09:01:00Z</time>
      </trkpt>
      <trkpt lat="44.00754" lon="5.91257">
        <ele>612.0166016</ele>
        <time>2011-08-23T09:01:05Z</time>
      </trkpt>
      <trkpt lat="44.00757" lon="5.91262">
        <ele>611.5358887</ele>
        <time>2011-08-23T09:01:10Z</time>
      </trkpt>
      <trkpt lat="44.00774" lon="5.9127">
        <ele>609.6132813</ele>
        <time>2011-08-23T09:01:24Z</time>
      </trkpt>
      <trkpt lat="44.00795" lon="5.91277">
        <ele>607.2099609</ele>
        <time>2011-08-23T09:01:40Z</time>
      </trkpt>
      <trkpt lat="44.00814" lon="5.91272">
        <ele>604.8066406</ele>
        <time>2011-08-23T09:01:56Z</time>
      </trkpt>
      <trkpt lat="44.00833" lon="5.91279">
        <ele>601.9226074</ele>
        <time>2011-08-23T09:02:12Z</time>
      </trkpt>
      <trkpt lat="44.00851" lon="5.91295">
        <ele>600</ele>
        <time>2011-08-23T09:02:26Z</time>
      </trkpt>
      <trkpt lat="44.00868" lon="5.91307">
        <ele>598.5578613</ele>
        <time>2011-08-23T09:02:41Z</time>
      </trkpt>
      <trkpt lat="44.00889" lon="5.9132">
        <ele>595.1933594</ele>
        <time>2011-08-23T09:03:00Z</time>
      </trkpt>
      <trkpt lat="44.00902" lon="5.91338">
        <ele>592.7902832</ele>
        <time>2011-08-23T09:03:14Z</time>
      </trkpt>
      <trkpt lat="44.00903" lon="5.9134">
        <ele>592.7902832</ele>
        <time>2011-08-23T09:03:15Z</time>
      </trkpt>
      <trkpt lat="44.00906" lon="5.91364">
        <ele>589.90625</ele>
        <time>2011-08-23T09:03:31Z</time>
      </trkpt>
      <trkpt lat="44.00905" lon="5.91378">
        <ele>587.9833984</ele>
        <time>2011-08-23T09:03:40Z</time>
      </trkpt>
      <trkpt lat="44.00905" lon="5.91381">
        <ele>587.9833984</ele>
        <time>2011-08-23T09:03:42Z</time>
      </trkpt>
      <trkpt lat="44.00902" lon="5.91395">
        <ele>586.060791</ele>
        <time>2011-08-23T09:03:51Z</time>
      </trkpt>
      <trkpt lat="44.00912" lon="5.91424">
        <ele>584.6188965</ele>
        <time>2011-08-23T09:04:09Z</time>
      </trkpt>
      <trkpt lat="44.00928" lon="5.91434">
        <ele>584.1381836</ele>
        <time>2011-08-23T09:04:26Z</time>
      </trkpt>
      <trkpt lat="44.00927" lon="5.91433">
        <ele>583.6574707</ele>
        <time>2011-08-23T09:05:05Z</time>
      </trkpt>
      <trkpt lat="44.00928" lon="5.91433">
        <ele>583.6574707</ele>
        <time>2011-08-23T09:05:12Z</time>
      </trkpt>
      <trkpt lat="44.00949" lon="5.91446">
        <ele>582.2155762</ele>
        <time>2011-08-23T09:05:30Z</time>
      </trkpt>
      <trkpt lat="44.0097" lon="5.91448">
        <ele>580.7736816</ele>
        <time>2011-08-23T09:05:46Z</time>
      </trkpt>
      <trkpt lat="44.0099" lon="5.91453">
        <ele>578.3703613</ele>
        <time>2011-08-23T09:06:03Z</time>
      </trkpt>
      <trkpt lat="44.00994" lon="5.91463">
        <ele>577.8896484</ele>
        <time>2011-08-23T09:06:09Z</time>
      </trkpt>
      <trkpt lat="44.00992" lon="5.91467">
        <ele>577.4091797</ele>
        <time>2011-08-23T09:06:12Z</time>
      </trkpt>
      <trkpt lat="44.00981" lon="5.91487">
        <ele>575.967041</ele>
        <time>2011-08-23T09:06:27Z</time>
      </trkpt>
      <trkpt lat="44.00978" lon="5.91492">
        <ele>575.4863281</ele>
        <time>2011-08-23T09:06:30Z</time>
      </trkpt>
      <trkpt lat="44.00977" lon="5.91501">
        <ele>574.5251465</ele>
        <time>2011-08-23T09:06:35Z</time>
      </trkpt>
      <trkpt lat="44.0097" lon="5.91525">
        <ele>572.6025391</ele>
        <time>2011-08-23T09:06:49Z</time>
      </trkpt>
      <trkpt lat="44.00962" lon="5.91543">
        <ele>570.1989746</ele>
        <time>2011-08-23T09:07:01Z</time>
      </trkpt>
      <trkpt lat="44.00958" lon="5.91549">
        <ele>569.7185059</ele>
        <time>2011-08-23T09:07:06Z</time>
      </trkpt>
      <trkpt lat="44.00949" lon="5.91557">
        <ele>568.2763672</ele>
        <time>2011-08-23T09:07:14Z</time>
      </trkpt>
      <trkpt lat="44.00928" lon="5.9157">
        <ele>566.3537598</ele>
        <time>2011-08-23T09:07:29Z</time>
      </trkpt>
      <trkpt lat="44.00923" lon="5.91567">
        <ele>565.873291</ele>
        <time>2011-08-23T09:07:33Z</time>
      </trkpt>
      <trkpt lat="44.00921" lon="5.91566">
        <ele>565.873291</ele>
        <time>2011-08-23T09:07:35Z</time>
      </trkpt>
      <trkpt lat="44.00908" lon="5.91567">
        <ele>563.9504395</ele>
        <time>2011-08-23T09:07:49Z</time>
      </trkpt>
      <trkpt lat="44.00908" lon="5.91573">
        <ele>563.4699707</ele>
        <time>2011-08-23T09:07:54Z</time>
      </trkpt>
      <trkpt lat="44.0091" lon="5.91581">
        <ele>562.5085449</ele>
        <time>2011-08-23T09:07:59Z</time>
      </trkpt>
      <trkpt lat="44.00914" lon="5.91594">
        <ele>561.0666504</ele>
        <time>2011-08-23T09:08:07Z</time>
      </trkpt>
      <trkpt lat="44.00918" lon="5.91602">
        <ele>560.1052246</ele>
        <time>2011-08-23T09:08:13Z</time>
      </trkpt>
      <trkpt lat="44.00924" lon="5.91623">
        <ele>557.7021484</ele>
        <time>2011-08-23T09:08:28Z</time>
      </trkpt>
      <trkpt lat="44.00931" lon="5.91635">
        <ele>556.7407227</ele>
        <time>2011-08-23T09:08:36Z</time>
      </trkpt>
      <trkpt lat="44.00945" lon="5.91654">
        <ele>554.3374023</ele>
        <time>2011-08-23T09:08:51Z</time>
      </trkpt>
      <trkpt lat="44.00947" lon="5.9166">
        <ele>554.3374023</ele>
        <time>2011-08-23T09:08:57Z</time>
      </trkpt>
      <trkpt lat="44.00958" lon="5.91665">
        <ele>554.8178711</ele>
        <time>2011-08-23T09:09:13Z</time>
      </trkpt>
      <trkpt lat="44.00956" lon="5.91667">
        <ele>554.8178711</ele>
        <time>2011-08-23T09:09:42Z</time>
      </trkpt>
      <trkpt lat="44.00955" lon="5.91667">
        <ele>554.8178711</ele>
        <time>2011-08-23T09:10:39Z</time>
      </trkpt>
      <trkpt lat="44.00955" lon="5.91667">
        <ele>553.3759766</ele>
        <time>2011-08-23T09:12:04Z</time>
      </trkpt>
    </trkseg>
  </trk>
</gpx>